TSC59Y SKBO-GOBD
Flight info
| Callsign | TSC59Y |
|---|---|
| Flight time | 7h 38m |
| Altitude | 41000 |
| Route | MAVDA UW20 AUC DCT MIQ UN669 ELJEZ/M081F410 DCT 2150N DCT 2340N DCT 22N036W DCT ERNEK/N0461F410 DCT EVKAS DCT BVT DCT MOGSA DCT PIVSA |
| Aircraft | A339/H-SADE1E2E3GHIJ3J5M1P2RWXY/LB2D1 |
Departure
| Time | 2026-04-25 13:51 |
|---|---|
| Airport | El Dorado International Airport (SKBO) |
Arrival
| Time | 2026-04-25 21:30 |
|---|---|
| Airport | Blaise Diagne International Airport (GOBD) |
| Time | Latitude | Longitude | Altitude | Speed | Heading |
|---|---|---|---|---|---|
| 2026-04-25 12:47 | 4.70141 | -74.14344 | 8373 ft | 0 kts | 202° |
| 2026-04-25 13:17 | 4.70148 | -74.14341 | 8373 ft | 1 kts | 193° |
| 2026-04-25 13:17 | 4.70155 | -74.14338 | 8373 ft | 1 kts | 183° |
| 2026-04-25 13:17 | 4.70163 | -74.14337 | 8373 ft | 1 kts | 169° |
| 2026-04-25 13:18 | 4.70170 | -74.14338 | 8373 ft | 1 kts | 158° |
| 2026-04-25 13:18 | 4.70177 | -74.14340 | 8373 ft | 1 kts | 148° |
| 2026-04-25 13:18 | 4.70184 | -74.14343 | 8373 ft | 1 kts | 139° |
| 2026-04-25 13:18 | 4.70190 | -74.14348 | 8373 ft | 1 kts | 130° |
| 2026-04-25 13:19 | 4.70198 | -74.14358 | 8373 ft | 2 kts | 130° |
| 2026-04-25 13:19 | 4.70207 | -74.14368 | 8373 ft | 2 kts | 130° |
| 2026-04-25 13:19 | 4.70217 | -74.14379 | 8373 ft | 2 kts | 130° |
| 2026-04-25 13:19 | 4.70223 | -74.14386 | 8373 ft | 2 kts | 130° |
| 2026-04-25 13:20 | 4.70236 | -74.14400 | 8373 ft | 2 kts | 154° |
| 2026-04-25 13:20 | 4.70249 | -74.14407 | 8373 ft | 2 kts | 173° |
| 2026-04-25 13:20 | 4.70263 | -74.14408 | 8373 ft | 2 kts | 189° |
| 2026-04-25 13:20 | 4.70277 | -74.14406 | 8373 ft | 2 kts | 198° |
| 2026-04-25 13:21 | 4.70290 | -74.14402 | 8373 ft | 2 kts | 208° |
| 2026-04-25 13:21 | 4.70292 | -74.14401 | 8373 ft | 0 kts | 209° |
| 2026-04-25 13:26 | 4.70262 | -74.14422 | 8373 ft | 8 kts | 216° |
| 2026-04-25 13:26 | 4.70216 | -74.14455 | 8373 ft | 8 kts | 216° |
| 2026-04-25 13:26 | 4.70176 | -74.14486 | 8373 ft | 6 kts | 217° |
| 2026-04-25 13:26 | 4.70153 | -74.14503 | 8372 ft | 3 kts | 217° |
| 2026-04-25 13:27 | 4.70139 | -74.14514 | 8372 ft | 2 kts | 217° |
| 2026-04-25 13:27 | 4.70104 | -74.14543 | 8372 ft | 14 kts | 218° |
| 2026-04-25 13:27 | 4.70035 | -74.14595 | 8372 ft | 11 kts | 216° |
| 2026-04-25 13:27 | 4.69981 | -74.14633 | 8371 ft | 8 kts | 215° |
| 2026-04-25 13:28 | 4.69945 | -74.14660 | 8371 ft | 7 kts | 216° |
| 2026-04-25 13:28 | 4.69914 | -74.14683 | 8371 ft | 9 kts | 219° |
| 2026-04-25 13:28 | 4.69843 | -74.14741 | 8371 ft | 10 kts | 219° |
| 2026-04-25 13:28 | 4.69796 | -74.14779 | 8370 ft | 7 kts | 218° |
| 2026-04-25 13:29 | 4.69764 | -74.14805 | 8370 ft | 6 kts | 218° |
| 2026-04-25 13:29 | 4.69717 | -74.14847 | 8370 ft | 12 kts | 229° |
| 2026-04-25 13:29 | 4.69713 | -74.14913 | 8370 ft | 7 kts | 298° |
| 2026-04-25 13:30 | 4.69812 | -74.14938 | 8370 ft | 10 kts | 320° |
| 2026-04-25 13:30 | 4.69868 | -74.15004 | 8370 ft | 15 kts | 309° |
| 2026-04-25 13:30 | 4.69942 | -74.15094 | 8370 ft | 19 kts | 309° |
| 2026-04-25 13:31 | 4.70091 | -74.15296 | 8370 ft | 14 kts | 307° |
| 2026-04-25 13:31 | 4.70143 | -74.15365 | 8369 ft | 10 kts | 307° |
| 2026-04-25 13:31 | 4.70179 | -74.15413 | 8369 ft | 7 kts | 307° |
| 2026-04-25 13:31 | 4.70200 | -74.15442 | 8369 ft | 4 kts | 307° |
| 2026-04-25 13:32 | 4.70239 | -74.15490 | 8370 ft | 15 kts | 308° |
| 2026-04-25 13:32 | 4.70296 | -74.15567 | 8369 ft | 12 kts | 307° |
| 2026-04-25 13:32 | 4.70342 | -74.15628 | 8369 ft | 9 kts | 307° |
| 2026-04-25 13:32 | 4.70374 | -74.15671 | 8369 ft | 6 kts | 307° |
| 2026-04-25 13:33 | 4.70395 | -74.15699 | 8369 ft | 7 kts | 307° |
| 2026-04-25 13:33 | 4.70435 | -74.15751 | 8369 ft | 11 kts | 307° |
| 2026-04-25 13:33 | 4.70474 | -74.15802 | 8369 ft | 7 kts | 307° |
| 2026-04-25 13:33 | 4.70516 | -74.15858 | 8369 ft | 15 kts | 307° |
| 2026-04-25 13:34 | 4.70584 | -74.15946 | 8369 ft | 16 kts | 307° |
| 2026-04-25 13:34 | 4.70656 | -74.16040 | 8369 ft | 17 kts | 308° |
| 2026-04-25 13:34 | 4.70730 | -74.16137 | 8369 ft | 18 kts | 308° |
| 2026-04-25 13:34 | 4.70807 | -74.16238 | 8369 ft | 19 kts | 307° |
| 2026-04-25 13:35 | 4.70885 | -74.16342 | 8369 ft | 19 kts | 306° |
| 2026-04-25 13:35 | 4.70963 | -74.16450 | 8368 ft | 19 kts | 306° |
| 2026-04-25 13:35 | 4.71022 | -74.16529 | 8368 ft | 13 kts | 309° |
| 2026-04-25 13:35 | 4.71046 | -74.16559 | 8368 ft | 0 kts | 308° |
| 2026-04-25 13:37 | 4.71075 | -74.16593 | 8368 ft | 10 kts | 309° |
| 2026-04-25 13:37 | 4.71088 | -74.16608 | 8368 ft | 3 kts | 309° |
| 2026-04-25 13:37 | 4.71089 | -74.16611 | 8368 ft | 0 kts | 309° |
| 2026-04-25 13:38 | 4.71093 | -74.16616 | 8368 ft | 6 kts | 309° |
| 2026-04-25 13:39 | 4.71131 | -74.16664 | 8368 ft | 2 kts | 308° |
| 2026-04-25 13:39 | 4.71133 | -74.16666 | 8368 ft | 0 kts | 308° |
| 2026-04-25 13:39 | 4.71135 | -74.16668 | 8368 ft | 0 kts | 308° |
| 2026-04-25 13:41 | 4.71145 | -74.16682 | 8368 ft | 2 kts | 307° |
| 2026-04-25 13:41 | 4.71169 | -74.16714 | 8368 ft | 9 kts | 307° |
| 2026-04-25 13:41 | 4.71184 | -74.16735 | 8368 ft | 0 kts | 303° |
| 2026-04-25 13:43 | 4.71187 | -74.16739 | 8368 ft | 2 kts | 304° |
| 2026-04-25 13:44 | 4.71193 | -74.16754 | 8368 ft | 3 kts | 290° |
| 2026-04-25 13:44 | 4.71198 | -74.16777 | 8368 ft | 4 kts | 282° |
| 2026-04-25 13:44 | 4.71188 | -74.16799 | 8368 ft | 4 kts | 244° |
| 2026-04-25 13:44 | 4.71168 | -74.16820 | 8368 ft | 5 kts | 228° |
| 2026-04-25 13:45 | 4.71163 | -74.16825 | 8367 ft | 0 kts | 225° |
| 2026-04-25 13:47 | 4.71156 | -74.16830 | 8367 ft | 3 kts | 219° |
| 2026-04-25 13:47 | 4.71129 | -74.16852 | 8367 ft | 7 kts | 219° |
| 2026-04-25 13:47 | 4.71087 | -74.16881 | 8367 ft | 8 kts | 213° |
| 2026-04-25 13:47 | 4.71043 | -74.16881 | 8367 ft | 5 kts | 159° |
| 2026-04-25 13:48 | 4.71023 | -74.16864 | 8367 ft | 0 kts | 134° |
| 2026-04-25 13:50 | 4.70941 | -74.16754 | 8367 ft | 47 kts | 127° |
| 2026-04-25 13:50 | 4.70630 | -74.16344 | 8369 ft | 100 kts | 127° |
| 2026-04-25 13:50 | 4.70104 | -74.15668 | 8369 ft | 144 kts | 127° |
| 2026-04-25 13:51 | 4.69425 | -74.14765 | 8373 ft | 178 kts | 126° |
| 2026-04-25 13:51 | 4.68647 | -74.13719 | 8605 ft | 189 kts | 126° |
| 2026-04-25 13:51 | 4.67839 | -74.12640 | 8915 ft | 199 kts | 125° |
| 2026-04-25 13:51 | 4.67012 | -74.11517 | 9362 ft | 201 kts | 126° |
| 2026-04-25 13:52 | 4.66181 | -74.10387 | 9817 ft | 202 kts | 126° |
| 2026-04-25 13:52 | 4.65333 | -74.09246 | 10172 ft | 209 kts | 127° |
| 2026-04-25 13:52 | 4.64432 | -74.08033 | 10310 ft | 225 kts | 127° |
| 2026-04-25 13:52 | 4.63465 | -74.06730 | 10431 ft | 241 kts | 126° |
| 2026-04-25 13:53 | 4.62450 | -74.05358 | 10730 ft | 247 kts | 126° |
| 2026-04-25 13:53 | 4.61427 | -74.03975 | 11151 ft | 247 kts | 127° |
| 2026-04-25 13:53 | 4.60396 | -74.02584 | 11541 ft | 249 kts | 127° |
| 2026-04-25 13:53 | 4.59094 | -74.01447 | 11853 ft | 251 kts | 154° |
| 2026-04-25 13:54 | 4.57434 | -74.01019 | 12198 ft | 251 kts | 181° |
| 2026-04-25 13:54 | 4.56266 | -74.01185 | 12435 ft | 252 kts | 199° |
| 2026-04-25 13:54 | 4.54405 | -74.02517 | 12877 ft | 253 kts | 236° |
| 2026-04-25 13:54 | 4.53744 | -74.04132 | 13210 ft | 254 kts | 264° |
| 2026-04-25 13:55 | 4.53920 | -74.05879 | 13558 ft | 255 kts | 291° |
| 2026-04-25 13:55 | 4.54829 | -74.07404 | 13914 ft | 256 kts | 307° |
| 2026-04-25 13:55 | 4.55899 | -74.08841 | 14251 ft | 259 kts | 306° |
| 2026-04-25 13:55 | 4.56879 | -74.10356 | 14574 ft | 259 kts | 300° |
| 2026-04-25 13:56 | 4.57455 | -74.11403 | 14783 ft | 259 kts | 297° |
| 2026-04-25 13:56 | 4.58244 | -74.13026 | 15123 ft | 260 kts | 295° |
| 2026-04-25 13:56 | 4.58984 | -74.14685 | 15440 ft | 261 kts | 294° |
| 2026-04-25 13:56 | 4.59711 | -74.16361 | 15757 ft | 263 kts | 293° |
| 2026-04-25 13:57 | 4.60440 | -74.18043 | 16089 ft | 264 kts | 294° |
| 2026-04-25 13:57 | 4.60926 | -74.19164 | 16261 ft | 266 kts | 293° |
| 2026-04-25 13:57 | 4.61304 | -74.21658 | 16369 ft | 279 kts | 267° |
| 2026-04-25 13:57 | 4.61191 | -74.23636 | 16492 ft | 291 kts | 266° |
| 2026-04-25 13:58 | 4.61064 | -74.25708 | 16598 ft | 304 kts | 266° |
| 2026-04-25 13:58 | 4.61083 | -74.27868 | 16674 ft | 317 kts | 281° |
| 2026-04-25 13:58 | 4.61863 | -74.29955 | 16822 ft | 327 kts | 302° |
| 2026-04-25 13:58 | 4.63318 | -74.31758 | 16941 ft | 339 kts | 311° |
| 2026-04-25 13:59 | 4.64923 | -74.33546 | 17065 ft | 350 kts | 311° |
| 2026-04-25 13:59 | 4.66563 | -74.35371 | 17327 ft | 356 kts | 311° |
| 2026-04-25 13:59 | 4.68234 | -74.37229 | 17589 ft | 361 kts | 311° |
| 2026-04-25 13:59 | 4.69936 | -74.39107 | 17850 ft | 366 kts | 313° |
| 2026-04-25 14:00 | 4.71224 | -74.40206 | 18009 ft | 370 kts | 326° |
| 2026-04-25 14:00 | 4.74430 | -74.41526 | 18306 ft | 380 kts | 349° |
| 2026-04-25 14:00 | 4.77093 | -74.41612 | 18513 ft | 388 kts | 7° |
| 2026-04-25 14:00 | 4.79705 | -74.40889 | 18819 ft | 392 kts | 24° |
| 2026-04-25 14:01 | 4.82007 | -74.39434 | 19165 ft | 395 kts | 40° |
| 2026-04-25 14:01 | 4.83819 | -74.37364 | 19479 ft | 398 kts | 57° |
| 2026-04-25 14:01 | 4.84983 | -74.34837 | 19812 ft | 400 kts | 73° |
| 2026-04-25 14:01 | 4.85544 | -74.32097 | 20141 ft | 402 kts | 80° |
| 2026-04-25 14:02 | 4.86178 | -74.29357 | 20441 ft | 404 kts | 73° |
| 2026-04-25 14:02 | 4.87164 | -74.26722 | 20788 ft | 405 kts | 65° |
| 2026-04-25 14:02 | 4.88428 | -74.24191 | 21126 ft | 406 kts | 61° |
| 2026-04-25 14:02 | 4.89357 | -74.22554 | 21341 ft | 408 kts | 59° |
| 2026-04-25 14:03 | 4.91308 | -74.19331 | 21789 ft | 410 kts | 58° |
| 2026-04-25 14:03 | 4.92814 | -74.16902 | 22115 ft | 411 kts | 57° |
| 2026-04-25 14:03 | 4.94343 | -74.14470 | 22426 ft | 413 kts | 59° |
| 2026-04-25 14:03 | 4.95797 | -74.11982 | 22790 ft | 413 kts | 59° |
| 2026-04-25 14:04 | 4.97254 | -74.09505 | 23342 ft | 409 kts | 59° |
| 2026-04-25 14:04 | 4.98722 | -74.07078 | 23903 ft | 405 kts | 58° |
| 2026-04-25 14:04 | 5.00197 | -74.04693 | 24380 ft | 400 kts | 58° |
| 2026-04-25 14:04 | 5.01666 | -74.02348 | 24854 ft | 395 kts | 58° |
| 2026-04-25 14:05 | 5.03125 | -74.00030 | 25279 ft | 393 kts | 58° |
| 2026-04-25 14:05 | 5.04594 | -73.97697 | 25454 ft | 397 kts | 58° |
| 2026-04-25 14:05 | 5.06064 | -73.95361 | 25787 ft | 396 kts | 58° |
| 2026-04-25 14:05 | 5.07536 | -73.93022 | 26123 ft | 396 kts | 58° |
| 2026-04-25 14:06 | 5.09011 | -73.90675 | 26300 ft | 400 kts | 58° |
| 2026-04-25 14:06 | 5.10509 | -73.88290 | 26347 ft | 409 kts | 58° |
| 2026-04-25 14:06 | 5.12040 | -73.85852 | 26344 ft | 418 kts | 58° |
| 2026-04-25 14:06 | 5.13609 | -73.83353 | 26337 ft | 428 kts | 58° |
| 2026-04-25 14:07 | 5.15212 | -73.80800 | 26333 ft | 436 kts | 58° |
| 2026-04-25 14:07 | 5.16833 | -73.78218 | 26428 ft | 439 kts | 58° |
| 2026-04-25 14:07 | 5.18456 | -73.75633 | 26775 ft | 438 kts | 58° |
| 2026-04-25 14:07 | 5.20082 | -73.73044 | 27056 ft | 439 kts | 58° |
| 2026-04-25 14:08 | 5.21718 | -73.70438 | 27297 ft | 441 kts | 58° |
| 2026-04-25 14:08 | 5.23353 | -73.67832 | 27559 ft | 443 kts | 58° |
| 2026-04-25 14:08 | 5.24996 | -73.65213 | 27818 ft | 444 kts | 58° |
| 2026-04-25 14:08 | 5.26623 | -73.62618 | 28072 ft | 446 kts | 59° |
| 2026-04-25 14:09 | 5.28277 | -73.59982 | 28342 ft | 447 kts | 59° |
| 2026-04-25 14:09 | 5.29937 | -73.57335 | 28598 ft | 449 kts | 59° |
| 2026-04-25 14:09 | 5.31605 | -73.54675 | 28855 ft | 451 kts | 59° |
| 2026-04-25 14:09 | 5.32734 | -73.52875 | 29032 ft | 452 kts | 59° |
| 2026-04-25 14:10 | 5.34954 | -73.49334 | 29383 ft | 454 kts | 59° |
| 2026-04-25 14:10 | 5.36662 | -73.46609 | 29629 ft | 455 kts | 59° |
| 2026-04-25 14:10 | 5.38352 | -73.43912 | 29891 ft | 457 kts | 59° |
| 2026-04-25 14:10 | 5.40025 | -73.41242 | 30128 ft | 459 kts | 59° |
| 2026-04-25 14:11 | 5.41727 | -73.38526 | 30374 ft | 460 kts | 59° |
| 2026-04-25 14:11 | 5.43457 | -73.35765 | 30599 ft | 462 kts | 59° |
| 2026-04-25 14:11 | 5.45169 | -73.33030 | 30835 ft | 463 kts | 59° |
| 2026-04-25 14:11 | 5.46863 | -73.30326 | 31061 ft | 465 kts | 59° |
| 2026-04-25 14:12 | 5.48587 | -73.27572 | 31295 ft | 466 kts | 59° |
| 2026-04-25 14:12 | 5.50316 | -73.24810 | 31543 ft | 467 kts | 59° |
| 2026-04-25 14:12 | 5.52048 | -73.22044 | 31768 ft | 469 kts | 59° |
| 2026-04-25 14:12 | 5.53786 | -73.19268 | 31988 ft | 470 kts | 60° |
| 2026-04-25 14:13 | 5.55530 | -73.16481 | 32207 ft | 472 kts | 60° |
| 2026-04-25 14:13 | 5.57277 | -73.13689 | 32420 ft | 473 kts | 60° |
| 2026-04-25 14:13 | 5.59030 | -73.10886 | 32628 ft | 475 kts | 60° |
| 2026-04-25 14:13 | 5.60788 | -73.08076 | 32817 ft | 476 kts | 60° |
| 2026-04-25 14:14 | 5.62553 | -73.05256 | 32983 ft | 477 kts | 60° |
| 2026-04-25 14:14 | 5.64172 | -73.02354 | 33115 ft | 476 kts | 68° |
| 2026-04-25 14:14 | 5.65214 | -72.99216 | 33288 ft | 472 kts | 80° |
| 2026-04-25 14:14 | 5.65593 | -72.95988 | 33771 ft | 462 kts | 91° |
| 2026-04-25 14:15 | 5.65339 | -72.92797 | 34115 ft | 457 kts | 102° |
| 2026-04-25 14:15 | 5.63426 | -72.86744 | 34537 ft | 455 kts | 110° |
| 2026-04-25 14:15 | 5.62355 | -72.83754 | 34756 ft | 454 kts | 110° |
| 2026-04-25 14:16 | 5.61287 | -72.80775 | 34978 ft | 454 kts | 110° |
| 2026-04-25 14:16 | 5.60218 | -72.77786 | 35154 ft | 454 kts | 110° |
| 2026-04-25 14:16 | 5.59155 | -72.74799 | 35370 ft | 453 kts | 110° |
| 2026-04-25 14:16 | 5.58099 | -72.71822 | 35594 ft | 453 kts | 110° |
| 2026-04-25 14:17 | 5.57041 | -72.68846 | 35808 ft | 453 kts | 110° |
| 2026-04-25 14:17 | 5.55983 | -72.65869 | 35989 ft | 453 kts | 110° |
| 2026-04-25 14:17 | 5.54920 | -72.62890 | 36148 ft | 453 kts | 111° |
| 2026-04-25 14:17 | 5.53906 | -72.59901 | 36330 ft | 453 kts | 106° |
| 2026-04-25 14:18 | 5.53328 | -72.56791 | 36487 ft | 455 kts | 95° |
| 2026-04-25 14:18 | 5.53383 | -72.53613 | 36675 ft | 457 kts | 84° |
| 2026-04-25 14:18 | 5.54077 | -72.50498 | 36855 ft | 460 kts | 72° |
| 2026-04-25 14:18 | 5.55390 | -72.47568 | 37029 ft | 463 kts | 61° |
| 2026-04-25 14:19 | 5.57280 | -72.44937 | 37215 ft | 466 kts | 50° |
| 2026-04-25 14:19 | 5.59576 | -72.42620 | 37455 ft | 467 kts | 45° |
| 2026-04-25 14:19 | 5.61893 | -72.40397 | 37686 ft | 467 kts | 46° |
| 2026-04-25 14:19 | 5.64171 | -72.38081 | 37887 ft | 465 kts | 49° |
| 2026-04-25 14:20 | 5.66366 | -72.35703 | 38107 ft | 464 kts | 50° |
| 2026-04-25 14:20 | 5.67823 | -72.34067 | 38253 ft | 463 kts | 51° |
| 2026-04-25 14:20 | 5.70634 | -72.30847 | 38510 ft | 463 kts | 51° |
| 2026-04-25 14:20 | 5.72743 | -72.28410 | 38702 ft | 462 kts | 51° |
| 2026-04-25 14:21 | 5.74851 | -72.25972 | 38886 ft | 461 kts | 51° |
| 2026-04-25 14:21 | 5.76951 | -72.23546 | 39019 ft | 461 kts | 51° |
| 2026-04-25 14:21 | 5.79058 | -72.21114 | 39168 ft | 461 kts | 51° |
| 2026-04-25 14:21 | 5.81162 | -72.18686 | 39300 ft | 460 kts | 51° |
| 2026-04-25 14:22 | 5.83264 | -72.16260 | 39433 ft | 460 kts | 51° |
| 2026-04-25 14:22 | 5.85338 | -72.13869 | 39564 ft | 460 kts | 51° |
| 2026-04-25 14:22 | 5.87436 | -72.11447 | 39699 ft | 460 kts | 51° |
| 2026-04-25 14:22 | 5.89537 | -72.09022 | 39837 ft | 460 kts | 51° |
| 2026-04-25 14:23 | 5.91636 | -72.06599 | 39943 ft | 460 kts | 51° |
| 2026-04-25 14:23 | 5.95841 | -72.01744 | 40041 ft | 462 kts | 51° |
| 2026-04-25 14:24 | 6.00074 | -71.96856 | 40138 ft | 464 kts | 51° |
| 2026-04-25 14:24 | 6.04316 | -71.91958 | 40255 ft | 465 kts | 51° |
| 2026-04-25 14:25 | 6.08571 | -71.87043 | 40348 ft | 466 kts | 51° |
| 2026-04-25 14:25 | 6.12829 | -71.82121 | 40443 ft | 467 kts | 50° |
| 2026-04-25 14:26 | 6.17093 | -71.77192 | 40527 ft | 467 kts | 50° |
| 2026-04-25 14:26 | 6.21363 | -71.72255 | 40595 ft | 468 kts | 50° |
| 2026-04-25 14:27 | 6.25621 | -71.67331 | 40777 ft | 465 kts | 50° |
| 2026-04-25 14:27 | 6.29869 | -71.62417 | 40852 ft | 466 kts | 50° |
| 2026-04-25 14:28 | 6.34125 | -71.57493 | 40898 ft | 467 kts | 50° |
| 2026-04-25 14:28 | 6.38380 | -71.52568 | 40952 ft | 467 kts | 50° |
| 2026-04-25 14:29 | 6.42639 | -71.47638 | 41005 ft | 467 kts | 50° |
| 2026-04-25 14:29 | 6.46878 | -71.42728 | 40997 ft | 468 kts | 50° |
| 2026-04-25 14:30 | 6.51153 | -71.37776 | 40987 ft | 469 kts | 50° |
| 2026-04-25 14:30 | 6.57585 | -71.30323 | 40988 ft | 471 kts | 50° |
| 2026-04-25 14:31 | 6.61882 | -71.25343 | 40990 ft | 472 kts | 50° |
| 2026-04-25 14:31 | 6.66183 | -71.20356 | 40990 ft | 472 kts | 50° |
| 2026-04-25 14:32 | 6.70490 | -71.15362 | 40992 ft | 473 kts | 50° |
| 2026-04-25 14:32 | 6.74802 | -71.10359 | 40991 ft | 473 kts | 50° |
| 2026-04-25 14:33 | 6.79092 | -71.05381 | 40993 ft | 474 kts | 50° |
| 2026-04-25 14:33 | 6.83416 | -71.00363 | 40995 ft | 475 kts | 50° |
| 2026-04-25 14:34 | 6.87743 | -70.95339 | 40992 ft | 475 kts | 50° |
| 2026-04-25 14:34 | 6.92076 | -70.90307 | 40992 ft | 476 kts | 50° |
| 2026-04-25 14:35 | 6.96412 | -70.85269 | 40992 ft | 476 kts | 50° |
| 2026-04-25 14:35 | 7.00752 | -70.80226 | 40991 ft | 477 kts | 50° |
| 2026-04-25 14:36 | 7.05100 | -70.75183 | 40994 ft | 477 kts | 49° |
| 2026-04-25 14:36 | 7.09607 | -70.70273 | 40993 ft | 477 kts | 47° |
| 2026-04-25 14:37 | 7.14217 | -70.65455 | 40993 ft | 478 kts | 46° |
| 2026-04-25 14:37 | 7.18834 | -70.60652 | 40993 ft | 478 kts | 46° |
| 2026-04-25 14:38 | 7.23454 | -70.55836 | 40995 ft | 478 kts | 46° |
| 2026-04-25 14:38 | 7.28071 | -70.51020 | 40995 ft | 478 kts | 47° |
| 2026-04-25 14:39 | 7.32687 | -70.46201 | 40996 ft | 478 kts | 47° |
| 2026-04-25 14:39 | 7.37308 | -70.41376 | 40997 ft | 478 kts | 47° |
| 2026-04-25 14:40 | 7.41927 | -70.36552 | 40996 ft | 478 kts | 47° |
| 2026-04-25 14:40 | 7.46550 | -70.31721 | 40997 ft | 479 kts | 47° |
| 2026-04-25 14:41 | 7.51146 | -70.26918 | 40999 ft | 479 kts | 47° |
| 2026-04-25 14:41 | 7.55778 | -70.22075 | 40996 ft | 479 kts | 47° |
| 2026-04-25 14:42 | 7.58873 | -70.18838 | 40998 ft | 479 kts | 47° |
| 2026-04-25 14:42 | 7.65030 | -70.12398 | 41001 ft | 479 kts | 47° |
| 2026-04-25 14:43 | 7.69658 | -70.07553 | 40999 ft | 480 kts | 47° |
| 2026-04-25 14:43 | 7.74290 | -70.02704 | 40997 ft | 480 kts | 47° |
| 2026-04-25 14:44 | 7.78141 | -69.98671 | 41001 ft | 480 kts | 47° |
| 2026-04-25 14:44 | 7.82775 | -69.93817 | 41002 ft | 480 kts | 47° |
| 2026-04-25 14:45 | 7.87408 | -69.88962 | 41000 ft | 481 kts | 47° |
| 2026-04-25 14:45 | 7.92050 | -69.84096 | 40999 ft | 481 kts | 47° |
| 2026-04-25 14:46 | 7.96687 | -69.79234 | 40997 ft | 481 kts | 47° |
| 2026-04-25 14:46 | 8.01331 | -69.74363 | 41002 ft | 482 kts | 47° |
| 2026-04-25 14:47 | 8.05194 | -69.70308 | 41001 ft | 482 kts | 47° |
| 2026-04-25 14:47 | 8.10628 | -69.64605 | 41001 ft | 482 kts | 47° |
| 2026-04-25 14:48 | 8.15275 | -69.59725 | 41003 ft | 483 kts | 47° |
| 2026-04-25 14:48 | 8.19931 | -69.54833 | 41001 ft | 483 kts | 47° |
| 2026-04-25 14:49 | 8.24583 | -69.49945 | 41002 ft | 483 kts | 47° |
| 2026-04-25 14:49 | 8.29239 | -69.45050 | 41001 ft | 483 kts | 47° |
| 2026-04-25 14:50 | 8.33898 | -69.40150 | 41000 ft | 484 kts | 47° |
| 2026-04-25 14:50 | 8.38564 | -69.35241 | 41002 ft | 484 kts | 47° |
| 2026-04-25 14:51 | 8.43202 | -69.30360 | 41005 ft | 485 kts | 46° |
| 2026-04-25 14:51 | 8.47904 | -69.25410 | 41003 ft | 485 kts | 46° |
| 2026-04-25 14:52 | 8.52551 | -69.20516 | 41004 ft | 486 kts | 46° |
| 2026-04-25 14:52 | 8.56472 | -69.16385 | 40999 ft | 486 kts | 46° |
| 2026-04-25 14:53 | 8.61913 | -69.10650 | 40998 ft | 487 kts | 46° |
| 2026-04-25 14:53 | 8.66600 | -69.05709 | 41000 ft | 487 kts | 46° |
| 2026-04-25 14:54 | 8.71288 | -69.00763 | 40996 ft | 487 kts | 46° |
| 2026-04-25 14:54 | 8.75973 | -68.95820 | 40997 ft | 487 kts | 46° |
| 2026-04-25 14:55 | 8.80659 | -68.90874 | 40997 ft | 487 kts | 46° |
| 2026-04-25 14:55 | 8.85345 | -68.85925 | 40995 ft | 486 kts | 46° |
| 2026-04-25 14:56 | 8.90023 | -68.80982 | 41000 ft | 486 kts | 46° |
| 2026-04-25 14:56 | 8.94697 | -68.76042 | 40996 ft | 486 kts | 46° |
| 2026-04-25 14:57 | 8.99367 | -68.71105 | 40995 ft | 486 kts | 46° |
| 2026-04-25 14:57 | 9.04043 | -68.66159 | 40995 ft | 486 kts | 46° |
| 2026-04-25 14:58 | 9.08713 | -68.61217 | 40998 ft | 486 kts | 46° |
| 2026-04-25 14:58 | 9.13382 | -68.56276 | 40997 ft | 486 kts | 46° |
| 2026-04-25 14:59 | 9.18057 | -68.51325 | 40998 ft | 486 kts | 46° |
| 2026-04-25 14:59 | 9.22728 | -68.46377 | 40995 ft | 486 kts | 46° |
| 2026-04-25 15:00 | 9.27400 | -68.41424 | 40996 ft | 486 kts | 46° |
| 2026-04-25 15:00 | 9.32075 | -68.36468 | 40996 ft | 486 kts | 46° |
| 2026-04-25 15:01 | 9.36716 | -68.31546 | 40996 ft | 486 kts | 47° |
| 2026-04-25 15:01 | 9.41392 | -68.26584 | 40996 ft | 487 kts | 47° |
| 2026-04-25 15:02 | 9.46067 | -68.21622 | 40998 ft | 487 kts | 47° |
| 2026-04-25 15:02 | 9.50741 | -68.16658 | 40994 ft | 487 kts | 47° |
| 2026-04-25 15:03 | 9.55416 | -68.11691 | 41002 ft | 487 kts | 47° |
| 2026-04-25 15:03 | 9.60092 | -68.06721 | 41001 ft | 487 kts | 47° |
| 2026-04-25 15:04 | 9.64772 | -68.01744 | 41003 ft | 487 kts | 47° |
| 2026-04-25 15:04 | 9.69446 | -67.96772 | 41001 ft | 487 kts | 47° |
| 2026-04-25 15:05 | 9.74124 | -67.91792 | 41004 ft | 488 kts | 47° |
| 2026-04-25 15:06 | 9.81142 | -67.84319 | 41007 ft | 487 kts | 47° |
| 2026-04-25 15:06 | 9.85821 | -67.79333 | 41017 ft | 488 kts | 47° |
| 2026-04-25 15:07 | 9.90497 | -67.74349 | 41017 ft | 488 kts | 47° |
| 2026-04-25 15:07 | 9.95178 | -67.69358 | 41023 ft | 488 kts | 47° |
| 2026-04-25 15:08 | 9.99854 | -67.64368 | 41020 ft | 488 kts | 47° |
| 2026-04-25 15:08 | 10.04533 | -67.59374 | 41018 ft | 488 kts | 47° |
| 2026-04-25 15:09 | 10.09184 | -67.54408 | 41016 ft | 489 kts | 47° |
| 2026-04-25 15:09 | 10.16234 | -67.46875 | 41015 ft | 489 kts | 47° |
| 2026-04-25 15:10 | 10.20885 | -67.41903 | 41018 ft | 489 kts | 47° |
| 2026-04-25 15:11 | 10.27911 | -67.34387 | 41016 ft | 489 kts | 47° |
| 2026-04-25 15:11 | 10.32600 | -67.29368 | 41013 ft | 489 kts | 47° |
| 2026-04-25 15:12 | 10.39621 | -67.21848 | 41004 ft | 489 kts | 47° |
| 2026-04-25 15:12 | 10.42729 | -67.18518 | 40995 ft | 490 kts | 47° |
| 2026-04-25 15:13 | 10.51352 | -67.09275 | 40973 ft | 490 kts | 47° |
| 2026-04-25 15:14 | 10.56044 | -67.04242 | 40966 ft | 490 kts | 47° |
| 2026-04-25 15:14 | 10.60655 | -66.99137 | 40970 ft | 490 kts | 52° |
| 2026-04-25 15:15 | 10.63961 | -66.94473 | 40966 ft | 490 kts | 58° |
| 2026-04-25 15:15 | 10.68406 | -66.87747 | 40968 ft | 491 kts | 57° |
| 2026-04-25 15:16 | 10.72237 | -66.81994 | 40971 ft | 491 kts | 57° |
| 2026-04-25 15:16 | 10.77953 | -66.73390 | 40968 ft | 492 kts | 57° |
| 2026-04-25 15:17 | 10.83717 | -66.64703 | 40964 ft | 492 kts | 57° |
| 2026-04-25 15:18 | 10.87543 | -66.58933 | 40960 ft | 492 kts | 57° |
| 2026-04-25 15:18 | 10.93257 | -66.50309 | 40963 ft | 492 kts | 57° |
| 2026-04-25 15:19 | 10.95817 | -66.46444 | 40957 ft | 492 kts | 57° |
| 2026-04-25 15:19 | 11.00912 | -66.38747 | 40957 ft | 493 kts | 57° |
| 2026-04-25 15:20 | 11.04755 | -66.32978 | 40962 ft | 492 kts | 56° |
| 2026-04-25 15:20 | 11.08667 | -66.27255 | 40959 ft | 492 kts | 56° |
| 2026-04-25 15:21 | 11.12571 | -66.21531 | 40964 ft | 492 kts | 56° |
| 2026-04-25 15:21 | 11.16465 | -66.15801 | 40962 ft | 492 kts | 56° |
| 2026-04-25 15:22 | 11.20358 | -66.10067 | 40967 ft | 492 kts | 56° |
| 2026-04-25 15:22 | 11.24246 | -66.04337 | 40963 ft | 492 kts | 56° |
| 2026-04-25 15:23 | 11.28133 | -65.98605 | 40957 ft | 492 kts | 56° |
| 2026-04-25 15:23 | 11.32021 | -65.92869 | 40963 ft | 491 kts | 56° |
| 2026-04-25 15:24 | 11.35904 | -65.87137 | 40965 ft | 492 kts | 56° |
| 2026-04-25 15:24 | 11.38480 | -65.83333 | 40968 ft | 491 kts | 56° |
| 2026-04-25 15:25 | 11.43646 | -65.75699 | 40959 ft | 491 kts | 57° |
| 2026-04-25 15:25 | 11.47524 | -65.69961 | 40959 ft | 492 kts | 57° |
| 2026-04-25 15:26 | 11.51403 | -65.64216 | 40956 ft | 492 kts | 57° |
| 2026-04-25 15:26 | 11.55284 | -65.58466 | 40957 ft | 492 kts | 56° |
| 2026-04-25 15:27 | 11.59166 | -65.52710 | 40959 ft | 493 kts | 56° |
| 2026-04-25 15:28 | 11.64993 | -65.44066 | 40959 ft | 493 kts | 56° |
| 2026-04-25 15:28 | 11.68888 | -65.38299 | 40963 ft | 494 kts | 56° |
| 2026-04-25 15:29 | 11.72824 | -65.32619 | 40969 ft | 494 kts | 55° |
| 2026-04-25 15:29 | 11.76797 | -65.26896 | 40970 ft | 494 kts | 55° |
| 2026-04-25 15:30 | 11.80760 | -65.21164 | 40971 ft | 495 kts | 55° |
| 2026-04-25 15:30 | 11.84725 | -65.15419 | 40971 ft | 495 kts | 55° |
| 2026-04-25 15:31 | 11.88020 | -65.10643 | 40977 ft | 495 kts | 55° |
| 2026-04-25 15:31 | 11.91991 | -65.04884 | 40973 ft | 496 kts | 55° |
| 2026-04-25 15:32 | 11.95961 | -64.99124 | 40973 ft | 496 kts | 55° |
| 2026-04-25 15:32 | 12.00584 | -64.92411 | 40974 ft | 497 kts | 55° |
| 2026-04-25 15:33 | 12.05904 | -64.84682 | 40972 ft | 497 kts | 56° |
| 2026-04-25 15:33 | 12.09880 | -64.78901 | 40976 ft | 497 kts | 56° |
| 2026-04-25 15:34 | 12.13861 | -64.73109 | 40974 ft | 498 kts | 56° |
| 2026-04-25 15:34 | 12.17172 | -64.68289 | 40959 ft | 499 kts | 56° |
| 2026-04-25 15:35 | 12.23828 | -64.58593 | 40968 ft | 499 kts | 56° |
| 2026-04-25 15:36 | 12.29782 | -64.49911 | 40966 ft | 499 kts | 56° |
| 2026-04-25 15:36 | 12.33771 | -64.44091 | 40960 ft | 499 kts | 56° |
| 2026-04-25 15:37 | 12.37750 | -64.38266 | 40960 ft | 500 kts | 56° |
| 2026-04-25 15:37 | 12.41694 | -64.32411 | 40965 ft | 500 kts | 56° |
| 2026-04-25 15:38 | 12.45639 | -64.26551 | 40967 ft | 500 kts | 56° |
| 2026-04-25 15:38 | 12.49593 | -64.20684 | 40967 ft | 500 kts | 56° |
| 2026-04-25 15:39 | 12.53545 | -64.14818 | 40968 ft | 501 kts | 56° |
| 2026-04-25 15:39 | 12.57495 | -64.08952 | 40967 ft | 500 kts | 56° |
| 2026-04-25 15:40 | 12.60779 | -64.04073 | 40972 ft | 501 kts | 57° |
| 2026-04-25 15:40 | 12.65393 | -63.97212 | 40975 ft | 500 kts | 57° |
| 2026-04-25 15:41 | 12.69340 | -63.91339 | 40971 ft | 500 kts | 57° |
| 2026-04-25 15:41 | 12.73281 | -63.85470 | 40972 ft | 501 kts | 57° |
| 2026-04-25 15:42 | 12.77232 | -63.79583 | 40978 ft | 501 kts | 57° |
| 2026-04-25 15:42 | 12.81177 | -63.73700 | 40977 ft | 501 kts | 57° |
| 2026-04-25 15:43 | 12.85090 | -63.67843 | 40975 ft | 501 kts | 57° |
| 2026-04-25 15:43 | 12.89317 | -63.62162 | 40978 ft | 502 kts | 51° |
| 2026-04-25 15:44 | 12.93773 | -63.56642 | 40975 ft | 502 kts | 51° |
| 2026-04-25 15:44 | 12.98211 | -63.51114 | 40976 ft | 502 kts | 51° |
| 2026-04-25 15:45 | 13.02646 | -63.45587 | 40978 ft | 502 kts | 51° |
| 2026-04-25 15:45 | 13.06331 | -63.40992 | 40977 ft | 502 kts | 51° |
| 2026-04-25 15:46 | 13.11515 | -63.34525 | 40978 ft | 502 kts | 51° |
| 2026-04-25 15:46 | 13.15949 | -63.28990 | 40981 ft | 502 kts | 51° |
| 2026-04-25 15:47 | 13.20382 | -63.23454 | 40978 ft | 502 kts | 51° |
| 2026-04-25 15:47 | 13.24807 | -63.17923 | 40979 ft | 502 kts | 51° |
| 2026-04-25 15:48 | 13.29239 | -63.12381 | 40978 ft | 502 kts | 51° |
| 2026-04-25 15:48 | 13.33663 | -63.06844 | 40979 ft | 502 kts | 51° |
| 2026-04-25 15:49 | 13.38083 | -63.01309 | 40984 ft | 502 kts | 51° |
| 2026-04-25 15:49 | 13.42507 | -62.95765 | 40982 ft | 501 kts | 51° |
| 2026-04-25 15:50 | 13.46900 | -62.90256 | 40982 ft | 502 kts | 51° |
| 2026-04-25 15:50 | 13.51320 | -62.84711 | 40984 ft | 502 kts | 51° |
| 2026-04-25 15:51 | 13.55027 | -62.80057 | 40983 ft | 502 kts | 51° |
| 2026-04-25 15:51 | 13.60164 | -62.73604 | 40982 ft | 502 kts | 51° |
| 2026-04-25 15:52 | 13.64586 | -62.68044 | 40983 ft | 502 kts | 51° |
| 2026-04-25 15:52 | 13.69008 | -62.62482 | 40982 ft | 503 kts | 51° |
| 2026-04-25 15:53 | 13.73431 | -62.56915 | 40989 ft | 502 kts | 51° |
| 2026-04-25 15:53 | 13.77852 | -62.51345 | 40987 ft | 502 kts | 51° |
| 2026-04-25 15:54 | 13.82270 | -62.45777 | 40987 ft | 502 kts | 51° |
| 2026-04-25 15:54 | 13.86691 | -62.40202 | 40983 ft | 502 kts | 51° |
| 2026-04-25 15:55 | 13.91108 | -62.34627 | 40987 ft | 503 kts | 51° |
| 2026-04-25 15:55 | 13.95526 | -62.29046 | 40985 ft | 503 kts | 51° |
| 2026-04-25 15:56 | 13.99949 | -62.23457 | 40985 ft | 504 kts | 51° |
| 2026-04-25 15:56 | 14.04371 | -62.17864 | 40986 ft | 504 kts | 51° |
| 2026-04-25 15:57 | 14.08796 | -62.12265 | 40985 ft | 504 kts | 51° |
| 2026-04-25 15:57 | 14.13225 | -62.06656 | 40987 ft | 504 kts | 51° |
| 2026-04-25 15:58 | 14.17618 | -62.01088 | 40989 ft | 504 kts | 51° |
| 2026-04-25 15:58 | 14.22042 | -61.95479 | 40989 ft | 504 kts | 51° |
| 2026-04-25 15:59 | 14.26472 | -61.89858 | 40983 ft | 505 kts | 51° |
| 2026-04-25 15:59 | 14.30896 | -61.84239 | 40989 ft | 505 kts | 51° |
| 2026-04-25 16:00 | 14.33857 | -61.80477 | 40985 ft | 505 kts | 51° |
| 2026-04-25 16:00 | 14.39751 | -61.72982 | 40986 ft | 506 kts | 51° |
| 2026-04-25 16:01 | 14.44186 | -61.67339 | 40986 ft | 506 kts | 51° |
| 2026-04-25 16:01 | 14.48618 | -61.61695 | 40988 ft | 506 kts | 51° |
| 2026-04-25 16:02 | 14.53056 | -61.56040 | 40988 ft | 507 kts | 51° |
| 2026-04-25 16:02 | 14.57494 | -61.50381 | 40987 ft | 507 kts | 51° |
| 2026-04-25 16:03 | 14.61933 | -61.44716 | 40984 ft | 508 kts | 51° |
| 2026-04-25 16:03 | 14.66376 | -61.39042 | 40991 ft | 508 kts | 51° |
| 2026-04-25 16:04 | 14.70819 | -61.33364 | 40989 ft | 507 kts | 51° |
| 2026-04-25 16:04 | 14.75252 | -61.27695 | 40991 ft | 508 kts | 51° |
| 2026-04-25 16:05 | 14.79689 | -61.22017 | 40994 ft | 508 kts | 51° |
| 2026-04-25 16:06 | 14.86311 | -61.13536 | 40991 ft | 508 kts | 51° |
| 2026-04-25 16:06 | 14.90749 | -61.07849 | 40997 ft | 508 kts | 51° |
| 2026-04-25 16:07 | 14.95182 | -61.02155 | 40999 ft | 508 kts | 51° |
| 2026-04-25 16:07 | 14.99618 | -60.96458 | 41000 ft | 508 kts | 51° |
| 2026-04-25 16:08 | 15.04053 | -60.90758 | 41001 ft | 509 kts | 51° |
| 2026-04-25 16:08 | 15.08481 | -60.85064 | 41001 ft | 508 kts | 51° |
| 2026-04-25 16:09 | 15.12913 | -60.79360 | 41001 ft | 508 kts | 51° |
| 2026-04-25 16:09 | 15.17344 | -60.73654 | 41001 ft | 508 kts | 51° |
| 2026-04-25 16:10 | 15.21774 | -60.67944 | 40998 ft | 509 kts | 51° |
| 2026-04-25 16:10 | 15.26202 | -60.62232 | 40996 ft | 508 kts | 51° |
| 2026-04-25 16:11 | 15.30628 | -60.56518 | 40997 ft | 509 kts | 51° |
| 2026-04-25 16:11 | 15.35051 | -60.50804 | 41001 ft | 508 kts | 51° |
| 2026-04-25 16:12 | 15.39479 | -60.45079 | 40992 ft | 509 kts | 51° |
| 2026-04-25 16:12 | 15.43903 | -60.39356 | 40985 ft | 509 kts | 51° |
| 2026-04-25 16:13 | 15.48326 | -60.33630 | 40982 ft | 509 kts | 51° |
| 2026-04-25 16:13 | 15.52748 | -60.27900 | 40985 ft | 509 kts | 51° |
| 2026-04-25 16:14 | 15.57165 | -60.22171 | 40980 ft | 509 kts | 51° |
| 2026-04-25 16:14 | 15.61580 | -60.16442 | 40982 ft | 508 kts | 51° |
| 2026-04-25 16:15 | 15.65993 | -60.10710 | 40985 ft | 508 kts | 51° |
| 2026-04-25 16:15 | 15.70405 | -60.04976 | 40987 ft | 508 kts | 51° |
| 2026-04-25 16:16 | 15.74815 | -59.99241 | 40990 ft | 509 kts | 51° |
| 2026-04-25 16:16 | 15.79227 | -59.93497 | 40984 ft | 509 kts | 51° |
| 2026-04-25 16:17 | 15.83607 | -59.87791 | 40982 ft | 509 kts | 51° |
| 2026-04-25 16:17 | 15.88014 | -59.82045 | 40986 ft | 509 kts | 51° |
| 2026-04-25 16:18 | 15.92422 | -59.76294 | 40983 ft | 509 kts | 51° |
| 2026-04-25 16:18 | 15.96829 | -59.70539 | 40995 ft | 509 kts | 51° |
| 2026-04-25 16:19 | 16.01241 | -59.64773 | 40995 ft | 510 kts | 51° |
| 2026-04-25 16:19 | 16.04907 | -59.59979 | 41002 ft | 510 kts | 51° |
| 2026-04-25 16:20 | 16.11520 | -59.51323 | 41000 ft | 510 kts | 51° |
| 2026-04-25 16:21 | 16.18133 | -59.42657 | 41005 ft | 510 kts | 51° |
| 2026-04-25 16:21 | 16.22543 | -59.36869 | 41003 ft | 510 kts | 51° |
| 2026-04-25 16:22 | 16.26954 | -59.31079 | 41005 ft | 511 kts | 51° |
| 2026-04-25 16:22 | 16.31368 | -59.25281 | 41003 ft | 511 kts | 51° |
| 2026-04-25 16:23 | 16.35779 | -59.19481 | 41009 ft | 511 kts | 51° |
| 2026-04-25 16:23 | 16.40191 | -59.13675 | 41010 ft | 511 kts | 51° |
| 2026-04-25 16:24 | 16.44600 | -59.07869 | 41006 ft | 511 kts | 51° |
| 2026-04-25 16:24 | 16.49011 | -59.02053 | 41008 ft | 511 kts | 50° |
| 2026-04-25 16:25 | 16.53420 | -58.96238 | 41007 ft | 511 kts | 50° |
| 2026-04-25 16:25 | 16.57824 | -58.90423 | 41015 ft | 511 kts | 50° |
| 2026-04-25 16:26 | 16.62228 | -58.84604 | 41004 ft | 511 kts | 50° |
| 2026-04-25 16:26 | 16.66632 | -58.78780 | 41014 ft | 511 kts | 50° |
| 2026-04-25 16:27 | 16.71038 | -58.72949 | 41012 ft | 512 kts | 50° |
| 2026-04-25 16:27 | 16.75441 | -58.67116 | 41011 ft | 511 kts | 50° |
| 2026-04-25 16:28 | 16.79841 | -58.61282 | 41011 ft | 512 kts | 50° |
| 2026-04-25 16:28 | 16.84216 | -58.55477 | 41009 ft | 512 kts | 50° |
| 2026-04-25 16:29 | 16.88618 | -58.49632 | 41011 ft | 512 kts | 50° |
| 2026-04-25 16:29 | 16.93018 | -58.43783 | 41008 ft | 512 kts | 50° |
| 2026-04-25 16:30 | 16.97415 | -58.37934 | 41012 ft | 512 kts | 50° |
| 2026-04-25 16:30 | 17.01816 | -58.32076 | 41015 ft | 512 kts | 50° |
| 2026-04-25 16:31 | 17.06211 | -58.26219 | 41016 ft | 513 kts | 50° |
| 2026-04-25 16:31 | 17.10611 | -58.20351 | 41016 ft | 513 kts | 50° |
| 2026-04-25 16:32 | 17.15009 | -58.14480 | 41016 ft | 513 kts | 50° |
| 2026-04-25 16:32 | 17.19406 | -58.08606 | 41018 ft | 513 kts | 50° |
| 2026-04-25 16:33 | 17.23801 | -58.02730 | 41017 ft | 513 kts | 50° |
| 2026-04-25 16:33 | 17.28199 | -57.96844 | 41018 ft | 513 kts | 50° |
| 2026-04-25 16:34 | 17.32596 | -57.90955 | 41019 ft | 513 kts | 50° |
| 2026-04-25 16:34 | 17.36991 | -57.85063 | 41017 ft | 514 kts | 50° |
| 2026-04-25 16:35 | 17.41388 | -57.79164 | 41020 ft | 514 kts | 50° |
| 2026-04-25 16:35 | 17.45788 | -57.73256 | 41020 ft | 514 kts | 50° |
| 2026-04-25 16:36 | 17.50184 | -57.67346 | 41021 ft | 514 kts | 50° |
| 2026-04-25 16:36 | 17.54553 | -57.61469 | 41022 ft | 514 kts | 50° |
| 2026-04-25 16:37 | 17.58949 | -57.55550 | 41020 ft | 514 kts | 50° |
| 2026-04-25 16:37 | 17.63344 | -57.49630 | 41020 ft | 515 kts | 50° |
| 2026-04-25 16:38 | 17.67738 | -57.43702 | 41024 ft | 515 kts | 50° |
| 2026-04-25 16:38 | 17.72131 | -57.37768 | 41027 ft | 515 kts | 50° |
| 2026-04-25 16:39 | 17.76522 | -57.31832 | 41026 ft | 515 kts | 50° |
| 2026-04-25 16:39 | 17.80918 | -57.25886 | 41023 ft | 515 kts | 50° |
| 2026-04-25 16:40 | 17.85310 | -57.19938 | 41022 ft | 516 kts | 50° |
| 2026-04-25 16:40 | 17.89702 | -57.13986 | 41030 ft | 516 kts | 50° |
| 2026-04-25 16:41 | 17.94090 | -57.08035 | 41030 ft | 516 kts | 50° |
| 2026-04-25 16:41 | 18.00398 | -56.98865 | 41028 ft | 518 kts | 59° |
| 2026-04-25 16:42 | 18.03584 | -56.92123 | 41029 ft | 519 kts | 64° |
| 2026-04-25 16:42 | 18.06685 | -56.85274 | 41020 ft | 519 kts | 64° |
| 2026-04-25 16:43 | 18.09802 | -56.78428 | 41026 ft | 519 kts | 64° |
| 2026-04-25 16:43 | 18.12914 | -56.71577 | 41027 ft | 519 kts | 64° |
| 2026-04-25 16:44 | 18.16023 | -56.64722 | 41022 ft | 519 kts | 64° |
| 2026-04-25 16:44 | 18.19131 | -56.57860 | 41029 ft | 520 kts | 64° |
| 2026-04-25 16:45 | 18.22234 | -56.50997 | 41027 ft | 520 kts | 64° |
| 2026-04-25 16:45 | 18.25335 | -56.44128 | 41026 ft | 520 kts | 64° |
| 2026-04-25 16:46 | 18.28438 | -56.37247 | 41027 ft | 520 kts | 64° |
| 2026-04-25 16:46 | 18.30514 | -56.32641 | 41023 ft | 520 kts | 64° |
| 2026-04-25 16:47 | 18.34645 | -56.23467 | 41023 ft | 522 kts | 64° |
| 2026-04-25 16:47 | 18.37755 | -56.16545 | 41025 ft | 523 kts | 64° |
| 2026-04-25 16:48 | 18.40867 | -56.09610 | 41023 ft | 523 kts | 64° |
| 2026-04-25 16:48 | 18.43975 | -56.02679 | 41029 ft | 523 kts | 64° |
| 2026-04-25 16:49 | 18.47081 | -55.95744 | 41027 ft | 524 kts | 64° |
| 2026-04-25 16:49 | 18.50186 | -55.88802 | 41032 ft | 524 kts | 64° |
| 2026-04-25 16:50 | 18.52765 | -55.83032 | 41030 ft | 524 kts | 64° |
| 2026-04-25 16:50 | 18.56369 | -55.74957 | 41031 ft | 524 kts | 64° |
| 2026-04-25 16:51 | 18.59472 | -55.67995 | 41031 ft | 524 kts | 64° |
| 2026-04-25 16:51 | 18.61544 | -55.63343 | 41031 ft | 524 kts | 64° |
| 2026-04-25 16:52 | 18.65665 | -55.54079 | 41028 ft | 524 kts | 64° |
| 2026-04-25 16:52 | 18.68760 | -55.47111 | 41033 ft | 524 kts | 64° |
| 2026-04-25 16:53 | 18.73397 | -55.36654 | 41033 ft | 525 kts | 64° |
| 2026-04-25 16:54 | 18.76486 | -55.29678 | 41031 ft | 525 kts | 64° |
| 2026-04-25 16:54 | 18.79578 | -55.22689 | 41033 ft | 525 kts | 64° |
| 2026-04-25 16:55 | 18.82663 | -55.15705 | 41030 ft | 525 kts | 64° |
| 2026-04-25 16:55 | 18.85730 | -55.08754 | 41026 ft | 525 kts | 64° |
| 2026-04-25 16:56 | 18.88811 | -55.01764 | 41028 ft | 525 kts | 64° |
| 2026-04-25 16:56 | 18.91894 | -54.94760 | 41033 ft | 525 kts | 64° |
| 2026-04-25 16:57 | 18.94974 | -54.87754 | 41037 ft | 526 kts | 64° |
| 2026-04-25 16:57 | 18.98053 | -54.80741 | 41033 ft | 526 kts | 64° |
| 2026-04-25 16:58 | 19.01130 | -54.73726 | 41038 ft | 526 kts | 64° |
| 2026-04-25 16:58 | 19.04204 | -54.66707 | 41031 ft | 526 kts | 64° |
| 2026-04-25 16:59 | 19.07275 | -54.59688 | 41038 ft | 526 kts | 64° |
| 2026-04-25 16:59 | 19.10343 | -54.52665 | 41038 ft | 526 kts | 64° |
| 2026-04-25 17:00 | 19.13409 | -54.45641 | 41034 ft | 526 kts | 64° |
| 2026-04-25 17:00 | 19.16473 | -54.38611 | 41020 ft | 526 kts | 64° |
| 2026-04-25 17:01 | 19.19534 | -54.31580 | 41020 ft | 527 kts | 64° |
| 2026-04-25 17:01 | 19.22576 | -54.24581 | 41018 ft | 527 kts | 64° |
| 2026-04-25 17:02 | 19.25654 | -54.17494 | 41020 ft | 527 kts | 64° |
| 2026-04-25 17:02 | 19.28708 | -54.10450 | 41022 ft | 527 kts | 64° |
| 2026-04-25 17:03 | 19.31760 | -54.03404 | 41021 ft | 527 kts | 64° |
| 2026-04-25 17:03 | 19.34791 | -53.96399 | 41028 ft | 527 kts | 64° |
| 2026-04-25 17:04 | 19.37841 | -53.89339 | 41026 ft | 528 kts | 64° |
| 2026-04-25 17:04 | 19.40888 | -53.82277 | 41023 ft | 527 kts | 64° |
| 2026-04-25 17:05 | 19.43931 | -53.75217 | 41022 ft | 527 kts | 64° |
| 2026-04-25 17:05 | 19.48487 | -53.64627 | 41017 ft | 527 kts | 64° |
| 2026-04-25 17:06 | 19.51009 | -53.58758 | 41051 ft | 526 kts | 64° |
| 2026-04-25 17:06 | 19.54041 | -53.51691 | 41050 ft | 527 kts | 64° |
| 2026-04-25 17:07 | 19.57072 | -53.44621 | 41060 ft | 527 kts | 64° |
| 2026-04-25 17:07 | 19.60101 | -53.37543 | 41053 ft | 527 kts | 64° |
| 2026-04-25 17:08 | 19.63128 | -53.30462 | 41053 ft | 527 kts | 64° |
| 2026-04-25 17:08 | 19.66151 | -53.23381 | 41045 ft | 527 kts | 64° |
| 2026-04-25 17:09 | 19.69175 | -53.16289 | 41046 ft | 527 kts | 64° |
| 2026-04-25 17:09 | 19.72175 | -53.09244 | 41044 ft | 527 kts | 64° |
| 2026-04-25 17:10 | 19.75190 | -53.02153 | 41041 ft | 527 kts | 64° |
| 2026-04-25 17:10 | 19.78207 | -52.95050 | 41041 ft | 527 kts | 64° |
| 2026-04-25 17:11 | 19.81221 | -52.87944 | 41043 ft | 528 kts | 64° |
| 2026-04-25 17:11 | 19.84227 | -52.80848 | 41042 ft | 527 kts | 64° |
| 2026-04-25 17:12 | 19.87236 | -52.73734 | 41043 ft | 527 kts | 64° |
| 2026-04-25 17:12 | 19.90240 | -52.66624 | 41044 ft | 528 kts | 65° |
| 2026-04-25 17:13 | 19.92737 | -52.60708 | 41043 ft | 528 kts | 65° |
| 2026-04-25 17:13 | 19.96246 | -52.52381 | 41045 ft | 528 kts | 65° |
| 2026-04-25 17:14 | 19.99244 | -52.45256 | 41044 ft | 528 kts | 65° |
| 2026-04-25 17:14 | 20.02237 | -52.38134 | 41043 ft | 528 kts | 65° |
| 2026-04-25 17:15 | 20.05207 | -52.31057 | 41045 ft | 528 kts | 65° |
| 2026-04-25 17:15 | 20.08215 | -52.23880 | 41046 ft | 528 kts | 65° |
| 2026-04-25 17:16 | 20.11180 | -52.16798 | 41045 ft | 528 kts | 65° |
| 2026-04-25 17:16 | 20.14164 | -52.09658 | 41046 ft | 528 kts | 65° |
| 2026-04-25 17:17 | 20.17148 | -52.02511 | 41046 ft | 528 kts | 65° |
| 2026-04-25 17:17 | 20.20126 | -51.95368 | 41044 ft | 528 kts | 65° |
| 2026-04-25 17:18 | 20.23100 | -51.88224 | 41047 ft | 528 kts | 65° |
| 2026-04-25 17:18 | 20.26072 | -51.81077 | 41048 ft | 528 kts | 65° |
| 2026-04-25 17:19 | 20.29043 | -51.73921 | 41041 ft | 528 kts | 65° |
| 2026-04-25 17:19 | 20.32013 | -51.66756 | 41046 ft | 528 kts | 65° |
| 2026-04-25 17:20 | 20.34980 | -51.59593 | 41048 ft | 528 kts | 65° |
| 2026-04-25 17:20 | 20.37942 | -51.52429 | 41051 ft | 528 kts | 65° |
| 2026-04-25 17:21 | 20.40903 | -51.45258 | 41050 ft | 529 kts | 65° |
| 2026-04-25 17:21 | 20.43863 | -51.38080 | 41049 ft | 529 kts | 65° |
| 2026-04-25 17:22 | 20.46324 | -51.32105 | 41050 ft | 529 kts | 65° |
| 2026-04-25 17:22 | 20.49781 | -51.23700 | 41048 ft | 529 kts | 65° |
| 2026-04-25 17:23 | 20.52735 | -51.16504 | 41052 ft | 529 kts | 65° |
| 2026-04-25 17:23 | 20.55685 | -51.09311 | 41054 ft | 529 kts | 65° |
| 2026-04-25 17:24 | 20.58635 | -51.02109 | 41051 ft | 530 kts | 65° |
| 2026-04-25 17:24 | 20.61583 | -50.94899 | 41054 ft | 530 kts | 65° |
| 2026-04-25 17:25 | 20.64526 | -50.87692 | 41050 ft | 530 kts | 65° |
| 2026-04-25 17:25 | 20.67451 | -50.80519 | 41053 ft | 530 kts | 65° |
| 2026-04-25 17:26 | 20.70392 | -50.73299 | 41049 ft | 530 kts | 65° |
| 2026-04-25 17:26 | 20.73329 | -50.66075 | 41053 ft | 530 kts | 65° |
| 2026-04-25 17:27 | 20.76264 | -50.58847 | 41049 ft | 530 kts | 65° |
| 2026-04-25 17:27 | 20.78226 | -50.54010 | 41053 ft | 530 kts | 65° |
| 2026-04-25 17:28 | 20.82126 | -50.44380 | 41052 ft | 530 kts | 65° |
| 2026-04-25 17:28 | 20.85052 | -50.37144 | 41057 ft | 531 kts | 65° |
| 2026-04-25 17:29 | 20.87978 | -50.29899 | 41053 ft | 531 kts | 65° |
| 2026-04-25 17:29 | 20.90901 | -50.22656 | 41052 ft | 531 kts | 65° |
| 2026-04-25 17:30 | 20.93823 | -50.15405 | 41051 ft | 531 kts | 65° |
| 2026-04-25 17:30 | 20.96742 | -50.08155 | 41054 ft | 531 kts | 65° |
| 2026-04-25 17:31 | 20.99572 | -50.00864 | 41054 ft | 531 kts | 69° |
| 2026-04-25 17:31 | 21.01579 | -49.93247 | 41058 ft | 532 kts | 76° |
| 2026-04-25 17:32 | 21.03336 | -49.85547 | 41061 ft | 533 kts | 75° |
| 2026-04-25 17:32 | 21.05130 | -49.77848 | 41055 ft | 533 kts | 75° |
| 2026-04-25 17:33 | 21.06920 | -49.70147 | 41057 ft | 533 kts | 75° |
| 2026-04-25 17:33 | 21.08701 | -49.62450 | 41060 ft | 532 kts | 75° |
| 2026-04-25 17:34 | 21.10478 | -49.54750 | 41057 ft | 532 kts | 75° |
| 2026-04-25 17:34 | 21.12253 | -49.47045 | 41052 ft | 532 kts | 75° |
| 2026-04-25 17:35 | 21.14021 | -49.39346 | 41057 ft | 532 kts | 75° |
| 2026-04-25 17:35 | 21.15772 | -49.31694 | 41053 ft | 533 kts | 76° |
| 2026-04-25 17:36 | 21.17533 | -49.23984 | 41063 ft | 533 kts | 76° |
| 2026-04-25 17:36 | 21.19290 | -49.16272 | 41064 ft | 532 kts | 75° |
| 2026-04-25 17:37 | 21.21043 | -49.08561 | 41063 ft | 532 kts | 76° |
| 2026-04-25 17:37 | 21.22792 | -49.00851 | 41063 ft | 532 kts | 76° |
| 2026-04-25 17:38 | 21.23961 | -48.95688 | 41048 ft | 533 kts | 76° |
| 2026-04-25 17:38 | 21.26279 | -48.85426 | 41065 ft | 532 kts | 76° |
| 2026-04-25 17:39 | 21.28018 | -48.77709 | 41064 ft | 532 kts | 76° |
| 2026-04-25 17:39 | 21.29752 | -48.69996 | 41063 ft | 532 kts | 76° |
| 2026-04-25 17:40 | 21.31483 | -48.62275 | 41068 ft | 532 kts | 76° |
| 2026-04-25 17:40 | 21.33212 | -48.54552 | 41070 ft | 532 kts | 76° |
| 2026-04-25 17:41 | 21.34936 | -48.46829 | 41065 ft | 532 kts | 76° |
| 2026-04-25 17:41 | 21.36656 | -48.39107 | 41067 ft | 532 kts | 76° |
| 2026-04-25 17:42 | 21.38374 | -48.31380 | 41064 ft | 533 kts | 76° |
| 2026-04-25 17:42 | 21.40088 | -48.23651 | 41069 ft | 532 kts | 76° |
| 2026-04-25 17:43 | 21.41799 | -48.15913 | 41063 ft | 533 kts | 76° |
| 2026-04-25 17:43 | 21.43508 | -48.08174 | 41061 ft | 533 kts | 76° |
| 2026-04-25 17:44 | 21.45211 | -48.00441 | 41060 ft | 532 kts | 76° |
| 2026-04-25 17:44 | 21.46910 | -47.92706 | 41060 ft | 532 kts | 76° |
| 2026-04-25 17:45 | 21.48034 | -47.87581 | 41061 ft | 532 kts | 76° |
| 2026-04-25 17:45 | 21.50287 | -47.77282 | 41061 ft | 532 kts | 76° |
| 2026-04-25 17:46 | 21.51976 | -47.69541 | 41061 ft | 533 kts | 76° |
| 2026-04-25 17:46 | 21.53662 | -47.61794 | 41062 ft | 533 kts | 76° |
| 2026-04-25 17:47 | 21.55344 | -47.54050 | 41061 ft | 532 kts | 76° |
| 2026-04-25 17:47 | 21.57025 | -47.46291 | 41063 ft | 532 kts | 76° |
| 2026-04-25 17:48 | 21.59535 | -47.34670 | 41063 ft | 532 kts | 76° |
| 2026-04-25 17:49 | 21.61204 | -47.26915 | 41063 ft | 533 kts | 76° |
| 2026-04-25 17:49 | 21.62871 | -47.19160 | 41062 ft | 533 kts | 76° |
| 2026-04-25 17:50 | 21.64534 | -47.11401 | 41063 ft | 533 kts | 76° |
| 2026-04-25 17:50 | 21.66182 | -47.03693 | 41061 ft | 533 kts | 76° |
| 2026-04-25 17:51 | 21.67838 | -46.95929 | 41066 ft | 533 kts | 76° |
| 2026-04-25 17:51 | 21.69491 | -46.88161 | 41065 ft | 533 kts | 76° |
| 2026-04-25 17:52 | 21.71140 | -46.80392 | 41067 ft | 533 kts | 76° |
| 2026-04-25 17:52 | 21.72785 | -46.72624 | 41067 ft | 533 kts | 76° |
| 2026-04-25 17:53 | 21.74426 | -46.64855 | 41067 ft | 533 kts | 76° |
| 2026-04-25 17:53 | 21.76064 | -46.57085 | 41065 ft | 533 kts | 76° |
| 2026-04-25 17:54 | 21.77424 | -46.50615 | 41065 ft | 533 kts | 76° |
| 2026-04-25 17:54 | 21.79057 | -46.42830 | 41068 ft | 533 kts | 76° |
| 2026-04-25 17:55 | 21.80687 | -46.35042 | 41069 ft | 533 kts | 76° |
| 2026-04-25 17:55 | 21.82313 | -46.27253 | 41070 ft | 534 kts | 76° |
| 2026-04-25 17:56 | 21.83936 | -46.19460 | 41069 ft | 534 kts | 76° |
| 2026-04-25 17:56 | 21.85554 | -46.11668 | 41066 ft | 534 kts | 76° |
| 2026-04-25 17:57 | 21.87170 | -46.03870 | 41066 ft | 534 kts | 76° |
| 2026-04-25 17:57 | 21.88784 | -45.96063 | 41069 ft | 534 kts | 76° |
| 2026-04-25 17:58 | 21.90394 | -45.88251 | 41070 ft | 534 kts | 76° |
| 2026-04-25 17:58 | 21.92000 | -45.80440 | 41072 ft | 534 kts | 76° |
| 2026-04-25 17:59 | 21.93592 | -45.72681 | 41073 ft | 534 kts | 76° |
| 2026-04-25 17:59 | 21.95191 | -45.64868 | 41069 ft | 534 kts | 76° |
| 2026-04-25 18:00 | 21.96786 | -45.57052 | 41072 ft | 534 kts | 76° |
| 2026-04-25 18:00 | 21.98379 | -45.49230 | 41076 ft | 534 kts | 76° |
| 2026-04-25 18:01 | 21.99967 | -45.41410 | 41076 ft | 535 kts | 76° |
| 2026-04-25 18:01 | 22.01552 | -45.33581 | 41072 ft | 535 kts | 76° |
| 2026-04-25 18:02 | 22.03135 | -45.25749 | 41075 ft | 535 kts | 76° |
| 2026-04-25 18:02 | 22.04715 | -45.17905 | 41076 ft | 535 kts | 76° |
| 2026-04-25 18:03 | 22.06289 | -45.10072 | 41075 ft | 535 kts | 76° |
| 2026-04-25 18:03 | 22.07861 | -45.02232 | 41077 ft | 536 kts | 76° |
| 2026-04-25 18:04 | 22.09432 | -44.94376 | 41079 ft | 536 kts | 76° |
| 2026-04-25 18:04 | 22.10997 | -44.86526 | 41075 ft | 536 kts | 76° |
| 2026-04-25 18:05 | 22.12560 | -44.78670 | 41073 ft | 536 kts | 76° |
| 2026-04-25 18:05 | 22.14119 | -44.70808 | 41075 ft | 536 kts | 76° |
| 2026-04-25 18:06 | 22.15675 | -44.62947 | 41075 ft | 536 kts | 76° |
| 2026-04-25 18:06 | 22.17227 | -44.55081 | 41072 ft | 536 kts | 76° |
| 2026-04-25 18:07 | 22.18776 | -44.47209 | 41072 ft | 536 kts | 76° |
| 2026-04-25 18:07 | 22.20311 | -44.39388 | 41075 ft | 536 kts | 76° |
| 2026-04-25 18:08 | 22.21852 | -44.31515 | 41077 ft | 536 kts | 76° |
| 2026-04-25 18:08 | 22.23389 | -44.23643 | 41078 ft | 536 kts | 76° |
| 2026-04-25 18:09 | 22.24922 | -44.15768 | 41077 ft | 537 kts | 76° |
| 2026-04-25 18:09 | 22.26455 | -44.07876 | 41082 ft | 537 kts | 76° |
| 2026-04-25 18:10 | 22.27981 | -43.99998 | 41080 ft | 537 kts | 76° |
| 2026-04-25 18:10 | 22.29506 | -43.92099 | 41081 ft | 537 kts | 76° |
| 2026-04-25 18:11 | 22.31028 | -43.84201 | 41080 ft | 537 kts | 76° |
| 2026-04-25 18:11 | 22.32544 | -43.76305 | 41081 ft | 537 kts | 76° |
| 2026-04-25 18:12 | 22.34058 | -43.68405 | 41080 ft | 537 kts | 76° |
| 2026-04-25 18:12 | 22.35567 | -43.60503 | 41083 ft | 537 kts | 76° |
| 2026-04-25 18:13 | 22.37074 | -43.52593 | 41084 ft | 537 kts | 76° |
| 2026-04-25 18:13 | 22.38575 | -43.44693 | 41083 ft | 537 kts | 76° |
| 2026-04-25 18:14 | 22.40821 | -43.32827 | 41084 ft | 537 kts | 76° |
| 2026-04-25 18:14 | 22.42303 | -43.24969 | 41083 ft | 537 kts | 76° |
| 2026-04-25 18:15 | 22.43792 | -43.17056 | 41085 ft | 537 kts | 76° |
| 2026-04-25 18:15 | 22.45278 | -43.09136 | 41090 ft | 537 kts | 76° |
| 2026-04-25 18:16 | 22.46758 | -43.01222 | 41085 ft | 538 kts | 76° |
| 2026-04-25 18:17 | 22.48975 | -42.89330 | 41087 ft | 538 kts | 76° |
| 2026-04-25 18:17 | 22.50447 | -42.81409 | 41089 ft | 537 kts | 76° |
| 2026-04-25 18:18 | 22.51915 | -42.73480 | 41087 ft | 538 kts | 76° |
| 2026-04-25 18:18 | 22.53380 | -42.65553 | 41087 ft | 538 kts | 76° |
| 2026-04-25 18:19 | 22.54840 | -42.57620 | 41088 ft | 538 kts | 76° |
| 2026-04-25 18:19 | 22.56298 | -42.49681 | 41087 ft | 538 kts | 76° |
| 2026-04-25 18:20 | 22.57752 | -42.41741 | 41088 ft | 538 kts | 76° |
| 2026-04-25 18:20 | 22.59201 | -42.33805 | 41085 ft | 538 kts | 76° |
| 2026-04-25 18:21 | 22.60648 | -42.25858 | 41091 ft | 538 kts | 76° |
| 2026-04-25 18:21 | 22.62090 | -42.17915 | 41090 ft | 538 kts | 76° |
| 2026-04-25 18:22 | 22.63529 | -42.09966 | 41092 ft | 538 kts | 76° |
| 2026-04-25 18:22 | 22.64963 | -42.02019 | 41095 ft | 538 kts | 76° |
| 2026-04-25 18:23 | 22.66393 | -41.94070 | 41097 ft | 538 kts | 76° |
| 2026-04-25 18:23 | 22.67819 | -41.86120 | 41095 ft | 538 kts | 76° |
| 2026-04-25 18:24 | 22.69243 | -41.78160 | 41095 ft | 538 kts | 76° |
| 2026-04-25 18:24 | 22.70660 | -41.70214 | 41096 ft | 538 kts | 76° |
| 2026-04-25 18:25 | 22.72066 | -41.62309 | 41096 ft | 538 kts | 76° |
| 2026-04-25 18:25 | 22.73475 | -41.54359 | 41095 ft | 538 kts | 76° |
| 2026-04-25 18:26 | 22.74884 | -41.46386 | 41095 ft | 538 kts | 76° |
| 2026-04-25 18:26 | 22.76287 | -41.38425 | 41092 ft | 538 kts | 76° |
| 2026-04-25 18:27 | 22.77689 | -41.30446 | 41095 ft | 538 kts | 76° |
| 2026-04-25 18:27 | 22.79085 | -41.22476 | 41098 ft | 538 kts | 76° |
| 2026-04-25 18:28 | 22.80476 | -41.14507 | 41099 ft | 538 kts | 76° |
| 2026-04-25 18:28 | 22.81865 | -41.06530 | 41095 ft | 538 kts | 76° |
| 2026-04-25 18:29 | 22.83940 | -40.94563 | 41099 ft | 538 kts | 76° |
| 2026-04-25 18:30 | 22.86694 | -40.78600 | 41097 ft | 539 kts | 76° |
| 2026-04-25 18:30 | 22.88056 | -40.70664 | 41096 ft | 539 kts | 76° |
| 2026-04-25 18:31 | 22.89424 | -40.62672 | 41096 ft | 539 kts | 76° |
| 2026-04-25 18:31 | 22.90790 | -40.54667 | 41101 ft | 539 kts | 76° |
| 2026-04-25 18:32 | 22.92151 | -40.46665 | 41096 ft | 539 kts | 76° |
| 2026-04-25 18:32 | 22.93509 | -40.38667 | 41101 ft | 539 kts | 76° |
| 2026-04-25 18:33 | 22.94866 | -40.30663 | 41099 ft | 539 kts | 76° |
| 2026-04-25 18:33 | 22.96220 | -40.22650 | 41100 ft | 540 kts | 76° |
| 2026-04-25 18:34 | 22.97569 | -40.14642 | 41102 ft | 540 kts | 76° |
| 2026-04-25 18:34 | 22.98894 | -40.06620 | 41075 ft | 541 kts | 79° |
| 2026-04-25 18:35 | 22.99129 | -39.98494 | 41094 ft | 546 kts | 93° |
| 2026-04-25 18:35 | 22.97745 | -39.90397 | 41090 ft | 546 kts | 105° |
| 2026-04-25 18:36 | 22.95817 | -39.82423 | 41090 ft | 547 kts | 104° |
| 2026-04-25 18:36 | 22.93930 | -39.74430 | 41088 ft | 547 kts | 104° |
| 2026-04-25 18:37 | 22.92034 | -39.66439 | 41092 ft | 547 kts | 104° |
| 2026-04-25 18:37 | 22.90130 | -39.58450 | 41105 ft | 547 kts | 104° |
| 2026-04-25 18:38 | 22.88219 | -39.50458 | 41108 ft | 547 kts | 105° |
| 2026-04-25 18:38 | 22.86304 | -39.42468 | 41114 ft | 547 kts | 104° |
| 2026-04-25 18:39 | 22.84387 | -39.34483 | 41113 ft | 547 kts | 105° |
| 2026-04-25 18:39 | 22.82465 | -39.26501 | 41108 ft | 547 kts | 105° |
| 2026-04-25 18:40 | 22.80539 | -39.18520 | 41104 ft | 547 kts | 105° |
| 2026-04-25 18:40 | 22.78609 | -39.10539 | 41101 ft | 547 kts | 105° |
| 2026-04-25 18:41 | 22.76678 | -39.02571 | 41104 ft | 547 kts | 105° |
| 2026-04-25 18:41 | 22.74754 | -38.94651 | 41104 ft | 547 kts | 105° |
| 2026-04-25 18:42 | 22.73458 | -38.89326 | 41106 ft | 547 kts | 105° |
| 2026-04-25 18:42 | 22.70870 | -38.78720 | 41104 ft | 547 kts | 105° |
| 2026-04-25 18:43 | 22.68923 | -38.70762 | 41104 ft | 547 kts | 105° |
| 2026-04-25 18:43 | 22.67288 | -38.64092 | 41102 ft | 547 kts | 105° |
| 2026-04-25 18:44 | 22.65345 | -38.56185 | 41103 ft | 547 kts | 105° |
| 2026-04-25 18:44 | 22.63387 | -38.48233 | 41101 ft | 546 kts | 105° |
| 2026-04-25 18:45 | 22.61426 | -38.40288 | 41103 ft | 546 kts | 105° |
| 2026-04-25 18:45 | 22.59461 | -38.32345 | 41100 ft | 546 kts | 105° |
| 2026-04-25 18:46 | 22.57493 | -38.24410 | 41102 ft | 546 kts | 105° |
| 2026-04-25 18:46 | 22.55521 | -38.16475 | 41102 ft | 546 kts | 105° |
| 2026-04-25 18:47 | 22.53989 | -38.10322 | 41104 ft | 546 kts | 105° |
| 2026-04-25 18:47 | 22.52012 | -38.02401 | 41103 ft | 546 kts | 105° |
| 2026-04-25 18:48 | 22.50030 | -37.94477 | 41096 ft | 546 kts | 105° |
| 2026-04-25 18:48 | 22.48057 | -37.86607 | 41102 ft | 546 kts | 105° |
| 2026-04-25 18:49 | 22.46055 | -37.78638 | 41101 ft | 546 kts | 105° |
| 2026-04-25 18:49 | 22.44064 | -37.70729 | 41103 ft | 545 kts | 105° |
| 2026-04-25 18:50 | 22.42067 | -37.62817 | 41105 ft | 545 kts | 105° |
| 2026-04-25 18:50 | 22.40082 | -37.54965 | 41102 ft | 545 kts | 105° |
| 2026-04-25 18:51 | 22.38404 | -37.48343 | 41102 ft | 545 kts | 105° |
| 2026-04-25 18:51 | 22.36069 | -37.39152 | 41100 ft | 545 kts | 105° |
| 2026-04-25 18:52 | 22.34059 | -37.31255 | 41102 ft | 545 kts | 105° |
| 2026-04-25 18:52 | 22.32042 | -37.23350 | 41101 ft | 546 kts | 105° |
| 2026-04-25 18:53 | 22.30023 | -37.15454 | 41104 ft | 546 kts | 105° |
| 2026-04-25 18:53 | 22.28000 | -37.07560 | 41103 ft | 545 kts | 105° |
| 2026-04-25 18:54 | 22.24957 | -36.95720 | 41102 ft | 545 kts | 105° |
| 2026-04-25 18:55 | 22.22925 | -36.87832 | 41100 ft | 546 kts | 105° |
| 2026-04-25 18:55 | 22.20902 | -36.79998 | 41101 ft | 546 kts | 105° |
| 2026-04-25 18:56 | 22.18862 | -36.72113 | 41103 ft | 545 kts | 105° |
| 2026-04-25 18:56 | 22.16818 | -36.64233 | 41103 ft | 545 kts | 105° |
| 2026-04-25 18:57 | 22.14771 | -36.56354 | 41103 ft | 545 kts | 105° |
| 2026-04-25 18:57 | 22.12718 | -36.48471 | 41103 ft | 545 kts | 105° |
| 2026-04-25 18:58 | 22.10663 | -36.40598 | 41102 ft | 545 kts | 105° |
| 2026-04-25 18:58 | 22.07575 | -36.28798 | 41102 ft | 545 kts | 105° |
| 2026-04-25 18:59 | 22.03443 | -36.13065 | 41105 ft | 545 kts | 105° |
| 2026-04-25 19:00 | 22.00334 | -36.01280 | 41103 ft | 545 kts | 107° |
| 2026-04-25 19:01 | 21.96400 | -35.89811 | 41103 ft | 544 kts | 111° |
| 2026-04-25 19:01 | 21.93727 | -35.82189 | 41102 ft | 544 kts | 111° |
| 2026-04-25 19:02 | 21.89708 | -35.70759 | 41103 ft | 544 kts | 111° |
| 2026-04-25 19:03 | 21.86564 | -35.61856 | 41099 ft | 544 kts | 111° |
| 2026-04-25 19:03 | 21.82977 | -35.51726 | 41105 ft | 544 kts | 111° |
| 2026-04-25 19:04 | 21.78923 | -35.40302 | 41099 ft | 546 kts | 111° |
| 2026-04-25 19:05 | 21.73473 | -35.24992 | 41103 ft | 549 kts | 111° |
| 2026-04-25 19:06 | 21.70759 | -35.17386 | 41100 ft | 548 kts | 111° |
| 2026-04-25 19:06 | 21.66651 | -35.05897 | 41102 ft | 548 kts | 112° |
| 2026-04-25 19:07 | 21.62540 | -34.94428 | 41101 ft | 548 kts | 112° |
| 2026-04-25 19:08 | 21.58422 | -34.82966 | 41099 ft | 548 kts | 112° |
| 2026-04-25 19:09 | 21.53386 | -34.68992 | 41099 ft | 548 kts | 112° |
| 2026-04-25 19:10 | 21.48785 | -34.56260 | 41102 ft | 548 kts | 112° |
| 2026-04-25 19:10 | 21.46026 | -34.48641 | 41100 ft | 547 kts | 112° |
| 2026-04-25 19:11 | 21.43265 | -34.41030 | 41098 ft | 547 kts | 112° |
| 2026-04-25 19:11 | 21.40498 | -34.33415 | 41098 ft | 547 kts | 112° |
| 2026-04-25 19:12 | 21.37730 | -34.25809 | 41096 ft | 547 kts | 112° |
| 2026-04-25 19:12 | 21.34978 | -34.18257 | 41098 ft | 547 kts | 112° |
| 2026-04-25 19:13 | 21.32202 | -34.10653 | 41101 ft | 547 kts | 112° |
| 2026-04-25 19:13 | 21.29426 | -34.03064 | 41105 ft | 547 kts | 112° |
| 2026-04-25 19:14 | 21.26646 | -33.95475 | 41105 ft | 547 kts | 112° |
| 2026-04-25 19:14 | 21.23865 | -33.87894 | 41097 ft | 546 kts | 112° |
| 2026-04-25 19:15 | 21.21533 | -33.81545 | 41095 ft | 546 kts | 112° |
| 2026-04-25 19:15 | 21.18295 | -33.72746 | 41095 ft | 546 kts | 112° |
| 2026-04-25 19:16 | 21.15508 | -33.65185 | 41093 ft | 546 kts | 112° |
| 2026-04-25 19:16 | 21.12718 | -33.57627 | 41094 ft | 545 kts | 112° |
| 2026-04-25 19:17 | 21.09923 | -33.50069 | 41092 ft | 545 kts | 112° |
| 2026-04-25 19:17 | 21.07128 | -33.42521 | 41090 ft | 545 kts | 112° |
| 2026-04-25 19:18 | 21.04329 | -33.34975 | 41088 ft | 545 kts | 112° |
| 2026-04-25 19:18 | 21.01529 | -33.27439 | 41088 ft | 545 kts | 112° |
| 2026-04-25 19:19 | 20.98727 | -33.19907 | 41085 ft | 545 kts | 113° |
| 2026-04-25 19:19 | 20.95922 | -33.12382 | 41088 ft | 544 kts | 113° |
| 2026-04-25 19:20 | 20.93133 | -33.04910 | 41088 ft | 544 kts | 113° |
| 2026-04-25 19:20 | 20.90314 | -32.97368 | 41085 ft | 544 kts | 113° |
| 2026-04-25 19:21 | 20.87510 | -32.89879 | 41084 ft | 544 kts | 113° |
| 2026-04-25 19:21 | 20.83288 | -32.78624 | 41081 ft | 544 kts | 113° |
| 2026-04-25 19:22 | 20.80468 | -32.71121 | 41083 ft | 544 kts | 113° |
| 2026-04-25 19:23 | 20.76234 | -32.59876 | 41084 ft | 543 kts | 113° |
| 2026-04-25 19:23 | 20.71995 | -32.48644 | 41081 ft | 543 kts | 113° |
| 2026-04-25 19:24 | 20.69164 | -32.41158 | 41076 ft | 543 kts | 113° |
| 2026-04-25 19:25 | 20.63498 | -32.26210 | 41078 ft | 544 kts | 113° |
| 2026-04-25 19:25 | 20.60673 | -32.18773 | 41079 ft | 544 kts | 113° |
| 2026-04-25 19:26 | 20.57828 | -32.11293 | 41078 ft | 544 kts | 114° |
| 2026-04-25 19:26 | 20.54976 | -32.03808 | 41077 ft | 544 kts | 114° |
| 2026-04-25 19:27 | 20.53065 | -31.98800 | 41059 ft | 545 kts | 114° |
| 2026-04-25 19:27 | 20.49262 | -31.88843 | 41057 ft | 544 kts | 114° |
| 2026-04-25 19:28 | 20.46402 | -31.81365 | 41054 ft | 544 kts | 114° |
| 2026-04-25 19:28 | 20.43540 | -31.73890 | 41056 ft | 544 kts | 114° |
| 2026-04-25 19:29 | 20.40403 | -31.66571 | 41049 ft | 543 kts | 117° |
| 2026-04-25 19:29 | 20.37208 | -31.59287 | 41049 ft | 543 kts | 117° |
| 2026-04-25 19:30 | 20.34016 | -31.51995 | 41052 ft | 543 kts | 117° |
| 2026-04-25 19:30 | 20.30837 | -31.44757 | 41050 ft | 542 kts | 117° |
| 2026-04-25 19:31 | 20.27638 | -31.37487 | 41050 ft | 542 kts | 117° |
| 2026-04-25 19:31 | 20.24432 | -31.30219 | 41050 ft | 542 kts | 117° |
| 2026-04-25 19:32 | 20.21745 | -31.24135 | 41049 ft | 542 kts | 117° |
| 2026-04-25 19:32 | 20.19074 | -31.18095 | 41050 ft | 542 kts | 117° |
| 2026-04-25 19:33 | 20.15345 | -31.09674 | 41051 ft | 541 kts | 117° |
| 2026-04-25 19:33 | 20.12129 | -31.02422 | 41049 ft | 541 kts | 117° |
| 2026-04-25 19:34 | 20.08915 | -30.95184 | 41049 ft | 541 kts | 117° |
| 2026-04-25 19:34 | 20.05697 | -30.87948 | 41048 ft | 541 kts | 117° |
| 2026-04-25 19:35 | 20.02480 | -30.80720 | 41049 ft | 541 kts | 117° |
| 2026-04-25 19:35 | 19.99261 | -30.73500 | 41050 ft | 540 kts | 117° |
| 2026-04-25 19:36 | 19.96039 | -30.66284 | 41044 ft | 540 kts | 117° |
| 2026-04-25 19:36 | 19.92817 | -30.59074 | 41048 ft | 540 kts | 117° |
| 2026-04-25 19:37 | 19.89593 | -30.51870 | 41047 ft | 539 kts | 117° |
| 2026-04-25 19:37 | 19.86368 | -30.44676 | 41046 ft | 539 kts | 117° |
| 2026-04-25 19:38 | 19.83144 | -30.37491 | 41049 ft | 539 kts | 117° |
| 2026-04-25 19:38 | 19.79918 | -30.30311 | 41046 ft | 539 kts | 117° |
| 2026-04-25 19:39 | 19.76690 | -30.23135 | 41046 ft | 538 kts | 117° |
| 2026-04-25 19:39 | 19.73460 | -30.15964 | 41044 ft | 538 kts | 117° |
| 2026-04-25 19:40 | 19.70228 | -30.08800 | 41047 ft | 538 kts | 117° |
| 2026-04-25 19:40 | 19.67016 | -30.01687 | 41046 ft | 538 kts | 117° |
| 2026-04-25 19:41 | 19.63780 | -29.94533 | 41051 ft | 538 kts | 117° |
| 2026-04-25 19:41 | 19.61067 | -29.88541 | 41037 ft | 538 kts | 117° |
| 2026-04-25 19:42 | 19.57304 | -29.80240 | 41043 ft | 537 kts | 117° |
| 2026-04-25 19:42 | 19.54063 | -29.73099 | 41042 ft | 537 kts | 117° |
| 2026-04-25 19:43 | 19.50822 | -29.65968 | 41030 ft | 537 kts | 117° |
| 2026-04-25 19:43 | 19.47577 | -29.58839 | 41030 ft | 537 kts | 117° |
| 2026-04-25 19:44 | 19.44329 | -29.51709 | 41029 ft | 537 kts | 118° |
| 2026-04-25 19:44 | 19.41080 | -29.44589 | 41028 ft | 537 kts | 118° |
| 2026-04-25 19:45 | 19.37830 | -29.37474 | 41031 ft | 536 kts | 118° |
| 2026-04-25 19:45 | 19.34600 | -29.30413 | 41029 ft | 536 kts | 118° |
| 2026-04-25 19:46 | 19.31345 | -29.23305 | 41034 ft | 536 kts | 118° |
| 2026-04-25 19:46 | 19.28089 | -29.16205 | 41031 ft | 536 kts | 118° |
| 2026-04-25 19:47 | 19.24830 | -29.09105 | 41028 ft | 536 kts | 118° |
| 2026-04-25 19:47 | 19.21568 | -29.02007 | 41033 ft | 536 kts | 118° |
| 2026-04-25 19:48 | 19.18308 | -28.94923 | 41030 ft | 536 kts | 118° |
| 2026-04-25 19:48 | 19.15044 | -28.87841 | 41029 ft | 535 kts | 118° |
| 2026-04-25 19:49 | 19.12308 | -28.81911 | 41027 ft | 535 kts | 118° |
| 2026-04-25 19:49 | 19.08512 | -28.73691 | 41025 ft | 535 kts | 118° |
| 2026-04-25 19:50 | 19.03608 | -28.63090 | 41027 ft | 535 kts | 118° |
| 2026-04-25 19:51 | 19.00337 | -28.56031 | 41027 ft | 535 kts | 118° |
| 2026-04-25 19:51 | 18.97067 | -28.48981 | 41024 ft | 534 kts | 118° |
| 2026-04-25 19:52 | 18.93791 | -28.41927 | 41022 ft | 534 kts | 118° |
| 2026-04-25 19:52 | 18.90518 | -28.34890 | 41025 ft | 534 kts | 118° |
| 2026-04-25 19:53 | 18.87243 | -28.27854 | 41022 ft | 534 kts | 118° |
| 2026-04-25 19:53 | 18.83966 | -28.20823 | 41020 ft | 533 kts | 118° |
| 2026-04-25 19:54 | 18.80689 | -28.13803 | 41022 ft | 533 kts | 118° |
| 2026-04-25 19:54 | 18.77415 | -28.06794 | 41021 ft | 532 kts | 118° |
| 2026-04-25 19:55 | 18.74138 | -27.99790 | 41023 ft | 532 kts | 118° |
| 2026-04-25 19:55 | 18.70859 | -27.92788 | 41021 ft | 532 kts | 118° |
| 2026-04-25 19:56 | 18.67583 | -27.85802 | 41020 ft | 531 kts | 118° |
| 2026-04-25 19:56 | 18.64327 | -27.78866 | 41021 ft | 531 kts | 118° |
| 2026-04-25 19:57 | 18.61025 | -27.71840 | 41019 ft | 531 kts | 118° |
| 2026-04-25 19:57 | 18.57767 | -27.64916 | 41017 ft | 531 kts | 118° |
| 2026-04-25 19:58 | 18.54487 | -27.57953 | 41019 ft | 530 kts | 118° |
| 2026-04-25 19:58 | 18.51208 | -27.51002 | 41015 ft | 530 kts | 118° |
| 2026-04-25 19:59 | 18.47925 | -27.44050 | 41018 ft | 530 kts | 118° |
| 2026-04-25 19:59 | 18.44641 | -27.37103 | 41014 ft | 530 kts | 118° |
| 2026-04-25 20:00 | 18.41355 | -27.30160 | 41016 ft | 529 kts | 118° |
| 2026-04-25 20:00 | 18.38070 | -27.23225 | 41014 ft | 529 kts | 118° |
| 2026-04-25 20:01 | 18.33139 | -27.12835 | 40979 ft | 530 kts | 118° |
| 2026-04-25 20:01 | 18.29851 | -27.05914 | 40996 ft | 529 kts | 118° |
| 2026-04-25 20:02 | 18.26562 | -26.99000 | 40992 ft | 528 kts | 118° |
| 2026-04-25 20:02 | 18.23273 | -26.92094 | 40989 ft | 528 kts | 118° |
| 2026-04-25 20:03 | 18.19983 | -26.85194 | 40989 ft | 528 kts | 118° |
| 2026-04-25 20:03 | 18.16689 | -26.78294 | 40993 ft | 528 kts | 118° |
| 2026-04-25 20:04 | 18.13394 | -26.71398 | 40994 ft | 528 kts | 118° |
| 2026-04-25 20:04 | 18.10096 | -26.64505 | 41013 ft | 527 kts | 118° |
| 2026-04-25 20:05 | 18.06798 | -26.57619 | 41015 ft | 527 kts | 118° |
| 2026-04-25 20:05 | 18.03496 | -26.50732 | 41012 ft | 527 kts | 118° |
| 2026-04-25 20:06 | 18.00197 | -26.43859 | 41013 ft | 527 kts | 118° |
| 2026-04-25 20:06 | 17.96911 | -26.37022 | 41009 ft | 527 kts | 118° |
| 2026-04-25 20:07 | 17.93605 | -26.30149 | 41002 ft | 527 kts | 118° |
| 2026-04-25 20:07 | 17.90298 | -26.23281 | 41000 ft | 527 kts | 118° |
| 2026-04-25 20:08 | 17.86992 | -26.16418 | 40992 ft | 527 kts | 118° |
| 2026-04-25 20:08 | 17.83682 | -26.09554 | 41001 ft | 527 kts | 119° |
| 2026-04-25 20:09 | 17.80371 | -26.02700 | 40997 ft | 526 kts | 119° |
| 2026-04-25 20:09 | 17.76848 | -25.95969 | 40995 ft | 526 kts | 121° |
| 2026-04-25 20:10 | 17.73360 | -25.89226 | 40987 ft | 526 kts | 121° |
| 2026-04-25 20:10 | 17.69886 | -25.82527 | 40994 ft | 526 kts | 121° |
| 2026-04-25 20:11 | 17.66383 | -25.75802 | 40994 ft | 525 kts | 121° |
| 2026-04-25 20:11 | 17.62874 | -25.69078 | 40993 ft | 525 kts | 121° |
| 2026-04-25 20:12 | 17.59365 | -25.62362 | 40982 ft | 525 kts | 121° |
| 2026-04-25 20:12 | 17.57017 | -25.57871 | 40994 ft | 525 kts | 121° |
| 2026-04-25 20:13 | 17.52343 | -25.48941 | 40990 ft | 525 kts | 121° |
| 2026-04-25 20:13 | 17.48828 | -25.42232 | 40993 ft | 525 kts | 121° |
| 2026-04-25 20:14 | 17.45314 | -25.35534 | 40984 ft | 525 kts | 121° |
| 2026-04-25 20:14 | 17.41797 | -25.28837 | 40988 ft | 524 kts | 121° |
| 2026-04-25 20:15 | 17.38282 | -25.22148 | 40987 ft | 524 kts | 121° |
| 2026-04-25 20:15 | 17.34764 | -25.15463 | 40989 ft | 524 kts | 121° |
| 2026-04-25 20:16 | 17.31247 | -25.08784 | 40991 ft | 524 kts | 121° |
| 2026-04-25 20:16 | 17.27752 | -25.02156 | 40986 ft | 524 kts | 121° |
| 2026-04-25 20:17 | 17.24234 | -24.95490 | 40987 ft | 523 kts | 121° |
| 2026-04-25 20:17 | 17.20712 | -24.88823 | 40986 ft | 523 kts | 121° |
| 2026-04-25 20:18 | 17.17191 | -24.82165 | 40981 ft | 523 kts | 121° |
| 2026-04-25 20:18 | 17.13668 | -24.75510 | 40982 ft | 523 kts | 121° |
| 2026-04-25 20:19 | 17.10143 | -24.68857 | 40977 ft | 523 kts | 121° |
| 2026-04-25 20:19 | 17.06615 | -24.62206 | 40975 ft | 523 kts | 121° |
| 2026-04-25 20:20 | 17.03684 | -24.56685 | 40977 ft | 523 kts | 121° |
| 2026-04-25 20:20 | 17.00155 | -24.50042 | 40974 ft | 523 kts | 121° |
| 2026-04-25 20:21 | 16.96623 | -24.43404 | 40967 ft | 523 kts | 121° |
| 2026-04-25 20:21 | 16.93084 | -24.36755 | 40960 ft | 523 kts | 121° |
| 2026-04-25 20:22 | 16.90147 | -24.31245 | 40957 ft | 523 kts | 121° |
| 2026-04-25 20:22 | 16.86012 | -24.23492 | 40962 ft | 523 kts | 121° |
| 2026-04-25 20:23 | 16.82473 | -24.16865 | 40964 ft | 523 kts | 121° |
| 2026-04-25 20:23 | 16.78933 | -24.10242 | 40965 ft | 522 kts | 121° |
| 2026-04-25 20:24 | 16.75414 | -24.03665 | 40965 ft | 522 kts | 121° |
| 2026-04-25 20:24 | 16.71869 | -23.97045 | 40969 ft | 522 kts | 121° |
| 2026-04-25 20:25 | 16.68323 | -23.90430 | 40967 ft | 522 kts | 121° |
| 2026-04-25 20:25 | 16.64779 | -23.83824 | 40965 ft | 522 kts | 122° |
| 2026-04-25 20:26 | 16.61232 | -23.77221 | 40959 ft | 521 kts | 122° |
| 2026-04-25 20:26 | 16.57687 | -23.70626 | 40958 ft | 521 kts | 122° |
| 2026-04-25 20:27 | 16.54141 | -23.64036 | 40955 ft | 521 kts | 122° |
| 2026-04-25 20:27 | 16.50598 | -23.57458 | 40955 ft | 520 kts | 122° |
| 2026-04-25 20:28 | 16.47055 | -23.50887 | 40948 ft | 520 kts | 122° |
| 2026-04-25 20:28 | 16.43539 | -23.44370 | 40950 ft | 519 kts | 122° |
| 2026-04-25 20:29 | 16.39998 | -23.37814 | 40947 ft | 519 kts | 122° |
| 2026-04-25 20:29 | 16.36459 | -23.31268 | 40945 ft | 519 kts | 122° |
| 2026-04-25 20:30 | 16.32916 | -23.24720 | 40945 ft | 518 kts | 122° |
| 2026-04-25 20:30 | 16.29377 | -23.18188 | 40949 ft | 518 kts | 122° |
| 2026-04-25 20:31 | 16.25838 | -23.11658 | 40945 ft | 518 kts | 122° |
| 2026-04-25 20:31 | 16.22300 | -23.05139 | 40936 ft | 517 kts | 122° |
| 2026-04-25 20:32 | 16.18763 | -22.98627 | 40928 ft | 517 kts | 122° |
| 2026-04-25 20:32 | 16.15226 | -22.92118 | 40926 ft | 516 kts | 122° |
| 2026-04-25 20:33 | 16.11704 | -22.85612 | 40930 ft | 516 kts | 121° |
| 2026-04-25 20:33 | 16.08822 | -22.80172 | 40929 ft | 516 kts | 121° |
| 2026-04-25 20:34 | 16.04776 | -22.72527 | 40937 ft | 516 kts | 121° |
| 2026-04-25 20:34 | 16.01308 | -22.65999 | 40940 ft | 516 kts | 121° |
| 2026-04-25 20:35 | 15.97835 | -22.59475 | 40951 ft | 515 kts | 121° |
| 2026-04-25 20:35 | 15.94365 | -22.52962 | 40946 ft | 515 kts | 121° |
| 2026-04-25 20:36 | 15.90914 | -22.46491 | 40952 ft | 515 kts | 121° |
| 2026-04-25 20:36 | 15.87440 | -22.39983 | 40950 ft | 515 kts | 121° |
| 2026-04-25 20:37 | 15.83965 | -22.33479 | 40947 ft | 515 kts | 121° |
| 2026-04-25 20:37 | 15.80512 | -22.27017 | 40969 ft | 505 kts | 121° |
| 2026-04-25 20:38 | 15.77120 | -22.20678 | 40972 ft | 503 kts | 121° |
| 2026-04-25 20:38 | 15.73708 | -22.14312 | 40970 ft | 505 kts | 121° |
| 2026-04-25 20:39 | 15.70297 | -22.07950 | 40966 ft | 504 kts | 121° |
| 2026-04-25 20:39 | 15.67459 | -22.02661 | 40962 ft | 504 kts | 121° |
| 2026-04-25 20:40 | 15.63480 | -21.95252 | 40951 ft | 507 kts | 121° |
| 2026-04-25 20:40 | 15.60036 | -21.88847 | 40950 ft | 509 kts | 121° |
| 2026-04-25 20:41 | 15.56581 | -21.82423 | 40953 ft | 509 kts | 121° |
| 2026-04-25 20:41 | 15.53128 | -21.76010 | 40953 ft | 509 kts | 122° |
| 2026-04-25 20:42 | 15.49674 | -21.69603 | 40948 ft | 509 kts | 122° |
| 2026-04-25 20:42 | 15.46227 | -21.63209 | 40914 ft | 504 kts | 122° |
| 2026-04-25 20:43 | 15.44533 | -21.60067 | 40797 ft | 496 kts | 122° |
| 2026-04-25 20:43 | 15.42852 | -21.56954 | 40541 ft | 494 kts | 122° |
| 2026-04-25 20:43 | 15.41173 | -21.53849 | 40289 ft | 496 kts | 122° |
| 2026-04-25 20:43 | 15.39478 | -21.50716 | 40070 ft | 499 kts | 122° |
| 2026-04-25 20:44 | 15.37775 | -21.47568 | 39711 ft | 501 kts | 122° |
| 2026-04-25 20:44 | 15.36072 | -21.44420 | 39357 ft | 501 kts | 122° |
| 2026-04-25 20:44 | 15.34367 | -21.41268 | 39096 ft | 501 kts | 122° |
| 2026-04-25 20:44 | 15.32665 | -21.38123 | 38985 ft | 501 kts | 122° |
| 2026-04-25 20:45 | 15.29265 | -21.31849 | 38945 ft | 503 kts | 122° |
| 2026-04-25 20:45 | 15.25840 | -21.25529 | 38944 ft | 503 kts | 122° |
| 2026-04-25 20:46 | 15.22417 | -21.19222 | 38942 ft | 503 kts | 122° |
| 2026-04-25 20:46 | 15.18990 | -21.12911 | 38939 ft | 502 kts | 122° |
| 2026-04-25 20:47 | 15.15563 | -21.06606 | 38940 ft | 502 kts | 122° |
| 2026-04-25 20:47 | 15.12133 | -21.00302 | 38942 ft | 502 kts | 122° |
| 2026-04-25 20:48 | 15.08706 | -20.94007 | 38938 ft | 502 kts | 122° |
| 2026-04-25 20:48 | 15.05280 | -20.87718 | 38936 ft | 502 kts | 122° |
| 2026-04-25 20:49 | 15.01855 | -20.81437 | 38934 ft | 501 kts | 122° |
| 2026-04-25 20:49 | 14.98428 | -20.75159 | 38936 ft | 501 kts | 122° |
| 2026-04-25 20:50 | 14.95000 | -20.68883 | 38942 ft | 501 kts | 122° |
| 2026-04-25 20:50 | 14.91598 | -20.62660 | 38939 ft | 499 kts | 122° |
| 2026-04-25 20:51 | 14.88210 | -20.56466 | 38937 ft | 493 kts | 122° |
| 2026-04-25 20:51 | 14.84823 | -20.50282 | 38930 ft | 495 kts | 122° |
| 2026-04-25 20:52 | 14.82011 | -20.45152 | 38937 ft | 494 kts | 122° |
| 2026-04-25 20:52 | 14.78055 | -20.37938 | 38933 ft | 493 kts | 122° |
| 2026-04-25 20:53 | 14.74674 | -20.31777 | 38932 ft | 493 kts | 122° |
| 2026-04-25 20:53 | 14.71290 | -20.25616 | 38930 ft | 493 kts | 122° |
| 2026-04-25 20:54 | 14.68256 | -20.19265 | 38930 ft | 495 kts | 112° |
| 2026-04-25 20:54 | 14.66068 | -20.12523 | 38932 ft | 495 kts | 109° |
| 2026-04-25 20:55 | 14.63915 | -20.05765 | 38925 ft | 495 kts | 110° |
| 2026-04-25 20:55 | 14.61765 | -19.99064 | 38929 ft | 495 kts | 110° |
| 2026-04-25 20:56 | 14.59599 | -19.92317 | 38927 ft | 495 kts | 110° |
| 2026-04-25 20:56 | 14.57432 | -19.85576 | 38927 ft | 495 kts | 110° |
| 2026-04-25 20:57 | 14.55264 | -19.78834 | 38924 ft | 495 kts | 110° |
| 2026-04-25 20:57 | 14.53095 | -19.72096 | 38923 ft | 495 kts | 110° |
| 2026-04-25 20:58 | 14.50923 | -19.65360 | 38923 ft | 494 kts | 110° |
| 2026-04-25 20:58 | 14.48751 | -19.58631 | 38920 ft | 494 kts | 110° |
| 2026-04-25 20:59 | 14.46582 | -19.51912 | 38925 ft | 494 kts | 110° |
| 2026-04-25 20:59 | 14.44407 | -19.45189 | 38921 ft | 494 kts | 110° |
| 2026-04-25 21:00 | 14.42954 | -19.40699 | 38922 ft | 493 kts | 110° |
| 2026-04-25 21:01 | 14.38970 | -19.28410 | 38915 ft | 493 kts | 110° |
| 2026-04-25 21:01 | 14.36794 | -19.21705 | 38914 ft | 493 kts | 110° |
| 2026-04-25 21:02 | 14.34615 | -19.15002 | 38912 ft | 493 kts | 110° |
| 2026-04-25 21:02 | 14.32437 | -19.08307 | 38912 ft | 493 kts | 110° |
| 2026-04-25 21:03 | 14.30256 | -19.01608 | 38912 ft | 492 kts | 110° |
| 2026-04-25 21:03 | 14.28090 | -18.94964 | 38905 ft | 492 kts | 110° |
| 2026-04-25 21:04 | 14.25907 | -18.88272 | 38904 ft | 492 kts | 110° |
| 2026-04-25 21:04 | 14.23724 | -18.81589 | 38900 ft | 492 kts | 110° |
| 2026-04-25 21:05 | 14.21581 | -18.75032 | 38803 ft | 474 kts | 110° |
| 2026-04-25 21:05 | 14.20533 | -18.71828 | 38345 ft | 469 kts | 110° |
| 2026-04-25 21:05 | 14.19487 | -18.68637 | 37450 ft | 471 kts | 109° |
| 2026-04-25 21:05 | 14.18433 | -18.65428 | 36575 ft | 473 kts | 109° |
| 2026-04-25 21:06 | 14.17379 | -18.62214 | 35724 ft | 475 kts | 109° |
| 2026-04-25 21:06 | 14.16318 | -18.58982 | 34883 ft | 477 kts | 109° |
| 2026-04-25 21:06 | 14.15258 | -18.55755 | 34307 ft | 475 kts | 109° |
| 2026-04-25 21:06 | 14.14914 | -18.54708 | 34201 ft | 475 kts | 109° |
| 2026-04-25 21:07 | 14.13131 | -18.49280 | 33430 ft | 478 kts | 108° |
| 2026-04-25 21:07 | 14.12062 | -18.46031 | 32587 ft | 480 kts | 108° |
| 2026-04-25 21:07 | 14.10982 | -18.42750 | 31528 ft | 486 kts | 108° |
| 2026-04-25 21:07 | 14.09899 | -18.39463 | 30715 ft | 483 kts | 108° |
| 2026-04-25 21:08 | 14.08840 | -18.36248 | 30009 ft | 477 kts | 107° |
| 2026-04-25 21:08 | 14.07776 | -18.33018 | 29416 ft | 474 kts | 107° |
| 2026-04-25 21:08 | 14.06725 | -18.29822 | 28932 ft | 469 kts | 107° |
| 2026-04-25 21:08 | 14.05684 | -18.26659 | 28448 ft | 464 kts | 107° |
| 2026-04-25 21:09 | 14.03618 | -18.20386 | 27041 ft | 464 kts | 108° |
| 2026-04-25 21:09 | 14.02575 | -18.17221 | 26153 ft | 469 kts | 108° |
| 2026-04-25 21:09 | 14.01525 | -18.14041 | 25496 ft | 468 kts | 108° |
| 2026-04-25 21:10 | 14.00483 | -18.10883 | 24960 ft | 463 kts | 108° |
| 2026-04-25 21:10 | 13.99450 | -18.07757 | 24411 ft | 459 kts | 108° |
| 2026-04-25 21:10 | 13.98428 | -18.04664 | 24058 ft | 450 kts | 108° |
| 2026-04-25 21:10 | 13.97740 | -18.01557 | 23927 ft | 443 kts | 95° |
| 2026-04-25 21:11 | 13.97748 | -17.98376 | 23886 ft | 450 kts | 82° |
| 2026-04-25 21:11 | 13.98442 | -17.95222 | 23882 ft | 453 kts | 69° |
| 2026-04-25 21:11 | 13.99252 | -17.93252 | 23880 ft | 450 kts | 61° |
| 2026-04-25 21:11 | 14.00954 | -17.90573 | 23883 ft | 445 kts | 48° |
| 2026-04-25 21:12 | 14.03152 | -17.88354 | 23848 ft | 440 kts | 37° |
| 2026-04-25 21:12 | 14.05538 | -17.86395 | 23477 ft | 439 kts | 37° |
| 2026-04-25 21:12 | 14.07808 | -17.84294 | 22895 ft | 439 kts | 43° |
| 2026-04-25 21:12 | 14.09201 | -17.82788 | 22522 ft | 437 kts | 46° |
| 2026-04-25 21:13 | 14.11794 | -17.79588 | 21623 ft | 434 kts | 50° |
| 2026-04-25 21:13 | 14.13623 | -17.77125 | 20956 ft | 431 kts | 51° |
| 2026-04-25 21:13 | 14.15406 | -17.74660 | 20304 ft | 428 kts | 51° |
| 2026-04-25 21:13 | 14.17173 | -17.72204 | 19665 ft | 425 kts | 51° |
| 2026-04-25 21:14 | 14.18928 | -17.69771 | 19033 ft | 421 kts | 51° |
| 2026-04-25 21:14 | 14.20674 | -17.67358 | 18410 ft | 418 kts | 51° |
| 2026-04-25 21:14 | 14.22409 | -17.64964 | 17743 ft | 415 kts | 51° |
| 2026-04-25 21:14 | 14.24129 | -17.62597 | 17066 ft | 410 kts | 51° |
| 2026-04-25 21:15 | 14.25831 | -17.60253 | 16395 ft | 406 kts | 51° |
| 2026-04-25 21:15 | 14.27505 | -17.57949 | 16026 ft | 397 kts | 52° |
| 2026-04-25 21:15 | 14.29170 | -17.55654 | 15886 ft | 403 kts | 52° |
| 2026-04-25 21:15 | 14.30853 | -17.53333 | 15870 ft | 404 kts | 52° |
| 2026-04-25 21:16 | 14.32512 | -17.51045 | 15872 ft | 403 kts | 52° |
| 2026-04-25 21:16 | 14.34188 | -17.48731 | 15870 ft | 404 kts | 52° |
| 2026-04-25 21:16 | 14.35868 | -17.46411 | 15879 ft | 403 kts | 52° |
| 2026-04-25 21:16 | 14.37547 | -17.44093 | 15870 ft | 403 kts | 52° |
| 2026-04-25 21:17 | 14.39227 | -17.41773 | 15874 ft | 403 kts | 52° |
| 2026-04-25 21:17 | 14.40904 | -17.39457 | 15869 ft | 403 kts | 52° |
| 2026-04-25 21:17 | 14.42571 | -17.37136 | 15869 ft | 403 kts | 53° |
| 2026-04-25 21:17 | 14.43870 | -17.34577 | 15867 ft | 405 kts | 70° |
| 2026-04-25 21:18 | 14.44418 | -17.31740 | 15813 ft | 403 kts | 87° |
| 2026-04-25 21:18 | 14.44164 | -17.28903 | 15666 ft | 393 kts | 105° |
| 2026-04-25 21:18 | 14.43125 | -17.26370 | 15528 ft | 376 kts | 124° |
| 2026-04-25 21:18 | 14.41437 | -17.24421 | 15385 ft | 355 kts | 144° |
| 2026-04-25 21:19 | 14.39359 | -17.23265 | 15186 ft | 327 kts | 166° |
| 2026-04-25 21:19 | 14.37181 | -17.22951 | 14709 ft | 311 kts | 184° |
| 2026-04-25 21:19 | 14.35027 | -17.22991 | 14069 ft | 308 kts | 184° |
| 2026-04-25 21:19 | 14.32901 | -17.23040 | 13462 ft | 303 kts | 184° |
| 2026-04-25 21:20 | 14.30804 | -17.23095 | 12765 ft | 299 kts | 184° |
| 2026-04-25 21:20 | 14.29434 | -17.23136 | 12325 ft | 297 kts | 184° |
| 2026-04-25 21:20 | 14.26732 | -17.22747 | 11408 ft | 295 kts | 160° |
| 2026-04-25 21:20 | 14.25031 | -17.21585 | 10717 ft | 296 kts | 136° |
| 2026-04-25 21:21 | 14.23900 | -17.19831 | 10063 ft | 295 kts | 113° |
| 2026-04-25 21:21 | 14.23529 | -17.17765 | 9399 ft | 294 kts | 90° |
| 2026-04-25 21:21 | 14.23603 | -17.15666 | 8627 ft | 293 kts | 89° |
| 2026-04-25 21:21 | 14.23663 | -17.13577 | 7921 ft | 290 kts | 89° |
| 2026-04-25 21:22 | 14.23695 | -17.11510 | 7231 ft | 288 kts | 89° |
| 2026-04-25 21:22 | 14.23772 | -17.09463 | 6499 ft | 284 kts | 80° |
| 2026-04-25 21:22 | 14.24385 | -17.07562 | 5770 ft | 277 kts | 57° |
| 2026-04-25 21:22 | 14.25654 | -17.06156 | 5252 ft | 261 kts | 31° |
| 2026-04-25 21:23 | 14.27296 | -17.05528 | 5055 ft | 252 kts | 6° |
| 2026-04-25 21:23 | 14.29085 | -17.05626 | 4993 ft | 264 kts | 349° |
| 2026-04-25 21:23 | 14.30879 | -17.05959 | 4984 ft | 264 kts | 350° |
| 2026-04-25 21:23 | 14.32678 | -17.06366 | 4991 ft | 265 kts | 347° |
| 2026-04-25 21:24 | 14.34486 | -17.06681 | 5100 ft | 264 kts | 354° |
| 2026-04-25 21:24 | 14.36336 | -17.06791 | 5214 ft | 268 kts | 359° |
| 2026-04-25 21:24 | 14.38193 | -17.06801 | 5272 ft | 267 kts | 359° |
| 2026-04-25 21:24 | 14.40059 | -17.06838 | 5160 ft | 269 kts | 358° |
| 2026-04-25 21:25 | 14.41917 | -17.06864 | 4944 ft | 264 kts | 359° |
| 2026-04-25 21:25 | 14.43699 | -17.06894 | 4676 ft | 247 kts | 359° |
| 2026-04-25 21:25 | 14.45358 | -17.06920 | 4376 ft | 231 kts | 359° |
| 2026-04-25 21:25 | 14.46914 | -17.06944 | 4090 ft | 217 kts | 359° |
| 2026-04-25 21:26 | 14.48386 | -17.06969 | 3812 ft | 206 kts | 359° |
| 2026-04-25 21:26 | 14.49790 | -17.06989 | 3553 ft | 198 kts | 359° |
| 2026-04-25 21:26 | 14.51136 | -17.07015 | 3328 ft | 188 kts | 360° |
| 2026-04-25 21:26 | 14.52419 | -17.07032 | 3091 ft | 180 kts | 360° |
| 2026-04-25 21:27 | 14.53655 | -17.07053 | 2862 ft | 177 kts | 359° |
| 2026-04-25 21:27 | 14.54905 | -17.07072 | 2642 ft | 181 kts | 359° |
| 2026-04-25 21:27 | 14.56153 | -17.07093 | 2417 ft | 177 kts | 359° |
| 2026-04-25 21:27 | 14.57315 | -17.07111 | 2150 ft | 160 kts | 0° |
| 2026-04-25 21:28 | 14.58402 | -17.07124 | 1754 ft | 155 kts | 0° |
| 2026-04-25 21:28 | 14.59467 | -17.07152 | 1372 ft | 150 kts | 359° |
| 2026-04-25 21:28 | 14.60436 | -17.07163 | 1313 ft | 137 kts | 360° |
| 2026-04-25 21:28 | 14.61441 | -17.07176 | 1221 ft | 147 kts | 358° |
| 2026-04-25 21:29 | 14.62446 | -17.07224 | 986 ft | 141 kts | 357° |
| 2026-04-25 21:29 | 14.63394 | -17.07226 | 820 ft | 136 kts | 2° |
| 2026-04-25 21:29 | 14.64353 | -17.07230 | 628 ft | 138 kts | 356° |
| 2026-04-25 21:29 | 14.65323 | -17.07262 | 414 ft | 137 kts | 359° |
| 2026-04-25 21:30 | 14.66246 | -17.07268 | 296 ft | 126 kts | 358° |
| 2026-04-25 21:30 | 14.66931 | -17.07282 | 280 ft | 56 kts | 358° |
| 2026-04-25 21:30 | 14.67080 | -17.07187 | 278 ft | 29 kts | 70° |
| 2026-04-25 21:30 | 14.67083 | -17.07142 | 278 ft | 0 kts | 90° |
| 2026-04-25 21:33 | 14.67082 | -17.07108 | 277 ft | 11 kts | 91° |
| 2026-04-25 21:33 | 14.67067 | -17.07018 | 277 ft | 15 kts | 124° |
| 2026-04-25 21:33 | 14.67007 | -17.06979 | 278 ft | 3 kts | 163° |
| 2026-04-25 21:33 | 14.66949 | -17.06895 | 278 ft | 20 kts | 103° |
| 2026-04-25 21:34 | 14.66968 | -17.06842 | 278 ft | 0 kts | 46° |
| 2026-04-25 21:34 | 14.66976 | -17.06835 | 278 ft | 0 kts | 45° |